Takano, Matsumi (2013): Radiosonde measurements from station Minamitorishima (2013-09) [dataset]. Japan Meteorological Agency, Tokyo, PANGAEA, https://doi.org/10.1594/PANGAEA.824651
Always quote citation above when using data! You can download the citation in several formats below.
Published: 2013-12-16 • DOI registered: 2014-02-09
Other version:
Takano, Matsumi (2013): BSRN Station-to-archive file for station Minamitorishima (2013-09). ftp://ftp.bsrn.awi.de/mnm/mnm0913.dat.gz
Project(s):
Coverage:
Latitude: 24.288300 * Longitude: 153.983300
Date/Time Start: 2013-09-01T00:00:00 * Date/Time End: 2013-09-30T23:59:00
Minimum ALTITUDE: 9 m * Maximum ALTITUDE: 33820 m
Event(s):
MNM (Minamitorishima) * Latitude: 24.288300 * Longitude: 153.983300 * Date/Time: 2010-04-01T00:00:00 * Elevation: 7.1 m * Station info: https://hdl.handle.net/10013/epic.44630.d003, update 2022: Minamitorishima.pdf * Location: Minami-Torishima * Method/Device: Monitoring station (MONS) * Comment: BSRN station no: 8; Surface type: water (ocean); Topography type: flat, rural; Horizon: doi:10.1594/PANGAEA.743879; Station scientist: SASAKI Shun (rrc-jma@met.kishou.go.jp)
Parameter(s):
| # | Name | Short Name | Unit | Principal Investigator | Method/Device | Comment |
|---|---|---|---|---|---|---|
| 1 | DATE/TIME | Date/Time | Geocode | |||
| 2 | ALTITUDE | Altitude | m | Geocode | ||
| 3 | Pressure, at given altitude | PPPP | hPa | Takano, Matsumi | Radiosonde (RADIO) | |
| 4 | Temperature, air | TTT | °C | Takano, Matsumi | Thermometer | |
| 5 | Dew/frost point | TdTdTd | °C | Takano, Matsumi | Hygrometer (HYGRO) | |
| 6 | Wind direction | dd | deg | Takano, Matsumi | Anemometer | |
| 7 | Wind speed | ff | m/s | Takano, Matsumi | Anemometer |
License:
Size:
30615 data points
Data
| 1 Date/Time | 2 Altitude [m] | 3 PPPP [hPa] | 4 TTT [°C] | 5 TdTdTd [°C] | 6 dd [deg] | 7 ff [m/s] |
|---|---|---|---|---|---|---|
| 2013-09-01T00:00 | 10259 | 278 | -35.7 | -42.2 | ||
| 2013-09-01T00:00 | 10276 | 278 | 66 | 23.0 | ||
| 2013-09-01T00:01 | 10564 | 266 | -37.9 | -45.3 | ||
| 2013-09-01T00:01 | 10658 | 263 | 70 | 24.0 | ||
| 2013-09-01T00:01 | 10766 | 259 | -37.7 | -54.3 | ||
| 2013-09-01T00:02 | 11006 | 250 | -40.0 | -58.5 | ||
| 2013-09-01T00:02 | 11039 | 249 | 78 | 24.0 | ||
| 2013-09-01T00:03 | 11440 | 234 | 76 | 24.0 | ||
| 2013-09-01T00:04 | 11822 | 221 | 78 | 27.0 | ||
| 2013-09-01T00:05 | 12158 | 210 | -50.6 | |||
| 2013-09-01T00:05 | 12195 | 209 | 79 | 30.0 | ||
| 2013-09-01T00:06 | 12587 | 197 | 79 | 29.0 | ||
| 2013-09-01T00:06 | 12623 | 196 | -54.2 | |||
| 2013-09-01T00:07 | 12971 | 185 | 84 | 28.0 | ||
| 2013-09-01T00:08 | 13338 | 175 | -59.8 | 77 | 27.0 | |
| 2013-09-01T00:09 | 13712 | 165 | 71 | 27.0 | ||
| 2013-09-01T00:10 | 14077 | 155 | 70 | 25.0 | ||
| 2013-09-01T00:10 | 14140 | 153 | -64.9 | |||
| 2013-09-01T00:11 | 14453 | 146 | 68 | 27.0 | ||
| 2013-09-01T00:12 | 14863 | 136 | 76 | 27.0 | ||
| 2013-09-01T00:13 | 15302 | 126 | 83 | 24.0 | ||
| 2013-09-01T00:14 | 15712 | 118 | 72 | 21.0 | ||
| 2013-09-01T00:14 | 15882 | 115 | -74.4 | |||
| 2013-09-01T00:15 | 16068 | 111 | -75.0 | |||
| 2013-09-01T00:15 | 16179 | 109 | 68 | 20.0 | ||
| 2013-09-01T00:15 | 16243 | 108 | -74.8 | |||
| 2013-09-01T00:16 | 16655 | 100 | 63 | 23.0 | ||
| 2013-09-01T00:16 | 16807 | 98 | -76.4 | |||
| 2013-09-01T00:17 | 17105 | 93 | -75.3 | |||
| 2013-09-01T00:17 | 17149 | 92 | 86 | 20.0 | ||
| 2013-09-01T00:18 | 17414 | 88 | -73.8 | |||
| 2013-09-01T00:18 | 17603 | 85 | -72.1 | |||
| 2013-09-01T00:18 | 17624 | 85 | 90 | 17.0 | ||
| 2013-09-01T00:19 | 18058 | 79 | -70.8 | |||
| 2013-09-01T00:19 | 18081 | 79 | 86 | 15.0 | ||
| 2013-09-01T00:20 | 18440 | 74 | 83 | 17.0 | ||
| 2013-09-01T00:20 | 18538 | 73 | -68.4 | |||
| 2013-09-01T00:21 | 18808 | 70 | 83 | 16.0 | ||
| 2013-09-01T00:22 | 19055 | 67 | -67.5 | |||
| 2013-09-01T00:22 | 19173 | 65 | 88 | 20.0 | ||
| 2013-09-01T00:23 | 19475 | 62 | -67.5 | |||
| 2013-09-01T00:23 | 19514 | 62 | 86 | 17.0 | ||
| 2013-09-01T00:24 | 19876 | 58 | 95 | 18.0 | ||
| 2013-09-01T00:25 | 20152 | 56 | -66.4 | |||
| 2013-09-01T00:25 | 20251 | 55 | 92 | 15.0 | ||
| 2013-09-01T00:26 | 20605 | 52 | 82 | 19.0 | ||
| 2013-09-01T00:26 | 20749 | 50 | -65.1 | |||
| 2013-09-01T00:27 | 20972 | 49 | 91 | 20.0 | ||
| 2013-09-01T00:27 | 20997 | 48 | -62.6 | |||
| 2013-09-01T00:28 | 21351 | 46 | 98 | 22.0 | ||
| 2013-09-01T00:29 | 21742 | 43 | 97 | 18.0 | ||
| 2013-09-01T00:29 | 21756 | 43 | -61.6 | |||
| 2013-09-01T00:30 | 22131 | 40 | 106 | 19.0 | ||
| 2013-09-01T00:31 | 22353 | 39 | -57.7 | |||
| 2013-09-01T00:31 | 22501 | 38 | 92 | 20.0 | ||
| 2013-09-01T00:32 | 22895 | 36 | 94 | 21.0 | ||
| 2013-09-01T00:33 | 23296 | 34 | 93 | 23.0 | ||
| 2013-09-01T00:34 | 23566 | 32 | -57.3 | |||
| 2013-09-01T00:34 | 23685 | 32 | 104 | 25.0 | ||
| 2013-09-01T00:35 | 24080 | 30 | 113 | 21.0 | ||
| 2013-09-01T00:36 | 24457 | 28 | 118 | 22.0 | ||
| 2013-09-01T00:36 | 24526 | 28 | -54.9 | |||
| 2013-09-01T00:37 | 24883 | 26 | 115 | 22.0 | ||
| 2013-09-01T00:38 | 25315 | 24 | 105 | 21.0 | ||
| 2013-09-01T00:38 | 25394 | 24 | -54.1 | |||
| 2013-09-01T00:39 | 25722 | 23 | 89 | 21.0 | ||
| 2013-09-01T00:40 | 26161 | 21 | 91 | 21.0 | ||
| 2013-09-01T00:40 | 26191 | 21 | -51.2 | |||
| 2013-09-01T00:41 | 26601 | 20 | 84 | 21.0 | ||
| 2013-09-01T00:42 | 27005 | 19 | -49.4 | 95 | 23.0 | |
| 2013-09-01T00:43 | 27437 | 18 | 87 | 20.0 | ||
| 2013-09-01T00:44 | 27859 | 17 | 77 | 30.0 | ||
| 2013-09-01T00:45 | 28311 | 15 | -49.9 | |||
| 2013-09-01T00:45 | 28354 | 15 | 90 | 30.0 | ||
| 2013-09-01T00:46 | 28844 | 14 | 89 | 28.0 | ||
| 2013-09-01T00:47 | 29278 | 13 | 91 | 33.0 | ||
| 2013-09-01T00:48 | 29748 | 12 | 98 | 32.0 | ||
| 2013-09-01T00:48 | 29912 | 12 | -42.6 | |||
| 2013-09-01T00:49 | 30197 | 12 | 118 | 30.0 | ||
| 2013-09-01T00:49 | 30256 | 12 | -41.7 | |||
| 2013-09-01T00:50 | 30682 | 11 | 103 | 31.0 | ||
| 2013-09-01T00:50 | 30809 | 11 | -41.0 | |||
| 2013-09-01T00:51 | 31071 | 10 | 111 | 23.0 | ||
| 2013-09-01T00:51 | 31207 | 10 | -39.0 | |||
| 2013-09-01T00:52 | 31559 | 10 | 85 | 19.0 | ||
| 2013-09-01T00:53 | 32009 | 9 | -37.4 | 90 | 21.0 | |
| 2013-09-01T11:30 | 9 | 1010 | 28.3 | 25.9 | 60 | 5.0 |
| 2013-09-01T11:30 | 71 | 1003 | 27.9 | 24.5 | ||
| 2013-09-01T11:31 | 325 | 974 | 78 | 7.0 | ||
| 2013-09-01T11:31 | 366 | 970 | 25.3 | 23.4 | ||
| 2013-09-01T11:32 | 621 | 942 | 87 | 8.0 | ||
| 2013-09-01T11:33 | 786 | 924 | 22.3 | 20.8 | ||
| 2013-09-01T11:33 | 926 | 910 | 100 | 7.0 | ||
| 2013-09-01T11:33 | 1000 | 902 | 22.3 | 18.5 | ||
| 2013-09-01T11:34 | 1262 | 875 | 20.2 | 16.4 | ||
| 2013-09-01T11:34 | 1267 | 875 | 86 | 7.0 | ||
| 2013-09-01T11:34 | 1390 | 862 | 19.6 | 15.1 | ||
| 2013-09-01T11:35 | 1435 | 858 | 19.4 | 16.6 | ||
| 2013-09-01T11:35 | 1586 | 843 | 18.7 | 16.3 | ||
| 2013-09-01T11:35 | 1603 | 841 | 95 | 8.0 | ||
| 2013-09-01T11:35 | 1671 | 835 | 18.9 | 14.0 | ||
| 2013-09-01T11:35 | 1759 | 826 | 18.3 | 13.8 | ||
| 2013-09-01T11:36 | 1831 | 819 | 17.9 | 14.0 | ||
| 2013-09-01T11:36 | 1859 | 817 | 17.7 | 15.0 | ||
| 2013-09-01T11:36 | 1865 | 816 | 17.6 | 14.7 | ||
| 2013-09-01T11:36 | 1939 | 809 | 82 | 7.0 | ||
| 2013-09-01T11:36 | 1967 | 806 | 16.9 | 14.7 | ||
| 2013-09-01T11:36 | 2043 | 799 | 16.7 | 13.8 | ||
| 2013-09-01T11:36 | 2060 | 798 | 16.7 | 13.6 | ||
| 2013-09-01T11:37 | 2139 | 790 | 16.1 | 13.9 | ||
| 2013-09-01T11:37 | 2295 | 776 | 82 | 9.0 | ||
| 2013-09-01T11:38 | 2524 | 755 | 14.2 | 12.6 | ||
| 2013-09-01T11:38 | 2644 | 745 | 91 | 8.0 | ||
| 2013-09-01T11:38 | 2655 | 744 | 13.2 | 12.1 | ||
| 2013-09-01T11:38 | 2737 | 737 | 12.8 | 10.5 | ||
| 2013-09-01T11:38 | 2801 | 731 | 12.6 | 9.6 | ||
| 2013-09-01T11:39 | 2819 | 729 | 12.5 | 10.4 | ||
| 2013-09-01T11:39 | 3004 | 714 | 87 | 7.0 | ||
| 2013-09-01T11:39 | 3017 | 712 | 11.6 | 7.9 | ||
| 2013-09-01T11:39 | 3133 | 703 | 10.9 | 6.5 | ||
| 2013-09-01T11:39 | 3139 | 702 | 10.9 | 8.7 | ||
| 2013-09-01T11:40 | 3237 | 694 | 10.2 | 8.0 | ||
| 2013-09-01T11:40 | 3257 | 692 | 10.1 | 8.2 | ||
| 2013-09-01T11:40 | 3275 | 691 | 10.2 | 5.6 | ||
| 2013-09-01T11:40 | 3305 | 688 | 10.1 | 5.5 | ||
| 2013-09-01T11:40 | 3323 | 687 | 10.0 | 6.3 | ||
| 2013-09-01T11:40 | 3329 | 686 | 9.9 | 5.7 | ||
| 2013-09-01T11:40 | 3372 | 683 | 72 | 8.0 | ||
| 2013-09-01T11:40 | 3439 | 677 | 9.4 | 5.9 | ||
| 2013-09-01T11:40 | 3476 | 674 | 9.4 | 3.8 | ||
| 2013-09-01T11:40 | 3494 | 673 | 9.3 | 6.4 | ||
| 2013-09-01T11:40 | 3525 | 670 | 9.2 | 5.7 | ||
| 2013-09-01T11:40 | 3543 | 669 | 9.2 | 3.2 | ||
| 2013-09-01T11:41 | 3665 | 659 | 8.5 | 2.5 | ||
| 2013-09-01T11:41 | 3729 | 654 | 7.9 | 1.1 | ||
| 2013-09-01T11:41 | 3735 | 654 | 58 | 10.0 | ||
| 2013-09-01T11:41 | 3758 | 652 | 7.9 | -0.3 | ||
| 2013-09-01T11:41 | 3793 | 649 | 8.0 | -0.5 | ||
| 2013-09-01T11:41 | 3828 | 646 | 7.7 | 0.4 | ||
| 2013-09-01T11:41 | 3886 | 642 | 7.6 | -1.1 | ||
| 2013-09-01T11:42 | 4019 | 631 | 6.6 | -0.2 | ||
| 2013-09-01T11:42 | 4077 | 627 | 6.7 | -9.3 | ||
| 2013-09-01T11:42 | 4082 | 627 | 55 | 10.0 | ||
| 2013-09-01T11:42 | 4197 | 618 | 6.2 | -10.5 | ||
| 2013-09-01T11:42 | 4235 | 615 | 6.0 | -6.6 | ||
| 2013-09-01T11:43 | 4330 | 608 | 5.4 | -5.0 | ||
| 2013-09-01T11:43 | 4399 | 603 | 5.0 | -6.0 | ||
| 2013-09-01T11:43 | 4415 | 602 | 4.9 | -3.4 | ||
| 2013-09-01T11:43 | 4422 | 601 | 4.8 | -4.2 | 60 | 12.0 |
| 2013-09-01T11:43 | 4451 | 599 | 4.7 | -4.8 | ||
| 2013-09-01T11:43 | 4497 | 596 | 4.3 | -1.3 | ||
| 2013-09-01T11:43 | 4542 | 592 | 4.2 | -3.6 | ||
| 2013-09-01T11:44 | 4625 | 586 | 3.6 | -3.4 | ||
| 2013-09-01T11:44 | 4777 | 575 | 62 | 11.0 | ||
| 2013-09-01T11:44 | 4893 | 567 | 1.8 | -3.9 | ||
| 2013-09-01T11:45 | 5040 | 557 | 1.2 | -4.9 | ||
| 2013-09-01T11:45 | 5171 | 548 | 67 | 11.0 | ||
| 2013-09-01T11:45 | 5216 | 545 | 0.3 | -8.7 | ||
| 2013-09-01T11:46 | 5566 | 522 | 66 | 11.0 | ||
| 2013-09-01T11:46 | 5586 | 520 | -2.7 | -10.7 | ||
| 2013-09-01T11:46 | 5657 | 516 | -3.0 | -10.8 | ||
| 2013-09-01T11:46 | 5727 | 511 | -3.6 | -11.1 | ||
| 2013-09-01T11:47 | 5816 | 505 | -4.1 | -9.3 | ||
| 2013-09-01T11:47 | 5948 | 497 | 63 | 12.0 | ||
| 2013-09-01T11:48 | 6190 | 482 | -6.5 | -11.1 | ||
| 2013-09-01T11:48 | 6309 | 475 | 64 | 12.0 | ||
| 2013-09-01T11:49 | 6475 | 465 | -7.9 | -12.6 | ||
| 2013-09-01T11:49 | 6637 | 455 | 78 | 12.0 | ||
| 2013-09-01T11:50 | 6886 | 441 | -11.2 | -13.8 | ||
| 2013-09-01T11:50 | 6984 | 435 | 79 | 14.0 | ||
| 2013-09-01T11:51 | 7207 | 422 | -13.3 | -16.8 | ||
| 2013-09-01T11:51 | 7272 | 419 | -13.7 | -18.3 | ||
| 2013-09-01T11:51 | 7341 | 415 | 73 | 16.0 | ||
| 2013-09-01T11:51 | 7431 | 410 | -14.5 | -21.4 | ||
| 2013-09-01T11:52 | 7601 | 401 | -15.6 | -27.9 | ||
| 2013-09-01T11:52 | 7694 | 396 | 77 | 17.0 | ||
| 2013-09-01T11:52 | 7854 | 388 | -17.6 | -30.0 | ||
| 2013-09-01T11:53 | 8014 | 380 | -18.8 | -32.4 | ||
| 2013-09-01T11:53 | 8047 | 378 | 79 | 19.0 | ||
| 2013-09-01T11:53 | 8120 | 374 | -19.6 | -30.6 | ||
| 2013-09-01T11:53 | 8212 | 370 | -20.4 | -27.1 | ||
| 2013-09-01T11:54 | 8218 | 369 | -20.5 | -26.8 | ||
| 2013-09-01T11:54 | 8280 | 366 | -20.8 | -27.7 | ||
| 2013-09-01T11:54 | 8392 | 361 | 73 | 18.0 | ||
| 2013-09-01T11:54 | 8497 | 356 | -22.6 | -28.4 | ||
| 2013-09-01T11:55 | 8672 | 347 | -24.0 | -28.4 | ||
| 2013-09-01T11:55 | 8744 | 344 | 68 | 21.0 | ||
| 2013-09-01T11:56 | 8945 | 334 | -26.0 | -28.6 | ||
| 2013-09-01T11:56 | 9087 | 328 | 53 | 17.0 | ||
| 2013-09-01T11:56 | 9202 | 323 | -27.8 | -29.5 | ||
| 2013-09-01T11:57 | 9289 | 319 | -27.9 | -31.1 | ||
| 2013-09-01T11:57 | 9398 | 314 | -28.4 | -39.4 | ||
| 2013-09-01T11:57 | 9432 | 312 | 61 | 21.0 | ||
| 2013-09-01T11:57 | 9538 | 308 | -29.7 | -46.0 | ||
| 2013-09-01T11:58 | 9754 | 299 | -31.1 | -48.7 | ||
| 2013-09-01T11:58 | 9783 | 297 | 72 | 24.0 | ||
| 2013-09-01T11:59 | 10149 | 282 | 66 | 22.0 | ||
| 2013-09-01T11:59 | 10157 | 282 | -34.2 | -49.4 | ||
| 2013-09-01T12:00 | 10511 | 268 | 60 | 22.0 | ||
| 2013-09-01T12:00 | 10547 | 267 | -36.8 | -52.5 | ||
| 2013-09-01T12:01 | 10859 | 255 | 58 | 21.0 | ||
| 2013-09-01T12:01 | 10945 | 252 | -40.0 | -56.8 | ||
| 2013-09-01T12:02 | 11204 | 242 | 56 | 23.0 | ||
| 2013-09-01T12:03 | 11562 | 230 | 56 | 23.0 | ||
| 2013-09-01T12:04 | 11918 | 218 | 50 | 21.0 | ||
| 2013-09-01T12:04 | 11954 | 216 | -48.9 | |||
| 2013-09-01T12:05 | 12276 | 206 | 44 | 18.0 | ||
| 2013-09-01T12:06 | 12613 | 196 | -54.0 | |||
| 2013-09-01T12:06 | 12639 | 195 | 52 | 18.0 | ||
| 2013-09-01T12:07 | 12979 | 185 | 53 | 22.0 | ||
| 2013-09-01T12:08 | 13334 | 175 | 62 | 23.0 | ||
| 2013-09-01T12:09 | 13695 | 165 | -61.3 | |||
| 2013-09-01T12:09 | 13699 | 165 | 61 | 25.0 | ||
| 2013-09-01T12:10 | 14062 | 155 | 70 | 25.0 | ||
| 2013-09-01T12:11 | 14406 | 147 | 70 | 26.0 | ||
| 2013-09-01T12:12 | 14749 | 139 | 71 | 27.0 | ||
| 2013-09-01T12:13 | 14947 | 134 | -68.6 | |||
| 2013-09-01T12:13 | 15091 | 131 | 66 | 30.0 | ||
| 2013-09-01T12:14 | 15491 | 122 | -70.6 | |||
| 2013-09-01T12:14 | 15506 | 122 | 81 | 26.0 | ||
| 2013-09-01T12:15 | 15902 | 114 | 87 | 22.0 | ||
| 2013-09-01T12:15 | 16070 | 111 | -71.2 | |||
| 2013-09-01T12:16 | 16303 | 107 | 94 | 21.0 | ||
| 2013-09-01T12:16 | 16436 | 104 | -73.5 | |||
| 2013-09-01T12:17 | 16705 | 100 | 85 | 16.0 | ||
| 2013-09-01T12:17 | 16717 | 99 | -74.0 | |||
| 2013-09-01T12:18 | 16909 | 96 | -72.0 | |||
| 2013-09-01T12:18 | 17083 | 93 | 78 | 17.0 | ||
| 2013-09-01T12:19 | 17380 | 89 | -72.2 | |||
| 2013-09-01T12:19 | 17494 | 87 | 69 | 15.0 | ||
| 2013-09-01T12:20 | 17927 | 81 | 89 | 18.0 | ||
| 2013-09-01T12:21 | 18125 | 78 | -73.2 | |||
| 2013-09-01T12:21 | 18316 | 76 | 83 | 21.0 | ||
| 2013-09-01T12:22 | 18467 | 74 | -70.1 | |||
| 2013-09-01T23:30 | 9 | 1009 | 29.2 | 25.0 | 90 | 8.0 |
| 2013-09-01T23:31 | 368 | 970 | 102 | 8.0 | ||
| 2013-09-01T23:32 | 566 | 948 | 23.8 | 22.2 | ||
| 2013-09-01T23:32 | 717 | 932 | 23.3 | 20.1 | ||
| 2013-09-01T23:32 | 723 | 931 | 105 | 9.0 | ||
| 2013-09-01T23:33 | 911 | 911 | 22.5 | 17.9 | ||
| 2013-09-01T23:33 | 1085 | 893 | 110 | 9.0 | ||
| 2013-09-01T23:33 | 1181 | 884 | 21.1 | 15.4 | ||
| 2013-09-01T23:34 | 1350 | 866 | 107 | 10.0 | ||
| 2013-09-01T23:34 | 1451 | 856 | 105 | 10.0 | ||
| 2013-09-01T23:35 | 1728 | 829 | 17.1 | 14.9 | ||
| 2013-09-01T23:35 | 1824 | 820 | 93 | 10.0 | ||
| 2013-09-01T23:36 | 2195 | 785 | 86 | 10.0 | ||
| 2013-09-01T23:36 | 2220 | 783 | 14.4 | 13.6 | ||
| 2013-09-01T23:37 | 2571 | 751 | 87 | 9.0 | ||
| 2013-09-01T23:37 | 2590 | 749 | 12.9 | 10.4 | ||
| 2013-09-01T23:37 | 2659 | 743 | 12.7 | 10.4 | ||
| 2013-09-01T23:37 | 2708 | 739 | 12.9 | 8.2 | ||
| 2013-09-01T23:37 | 2739 | 736 | 12.9 | 9.2 | ||
| 2013-09-01T23:38 | 2770 | 733 | 13.0 | 9.6 | ||
| 2013-09-01T23:38 | 2817 | 729 | 13.1 | 7.8 | ||
| 2013-09-01T23:38 | 2841 | 727 | 13.0 | 8.5 | ||
| 2013-09-01T23:38 | 2897 | 722 | 13.0 | 5.9 | ||
| 2013-09-01T23:38 | 2930 | 720 | 87 | 10.0 | ||
| 2013-09-01T23:38 | 2980 | 715 | 12.7 | 4.4 | ||
| 2013-09-01T23:38 | 3026 | 711 | 12.4 | 6.4 | ||
| 2013-09-01T23:39 | 3129 | 703 | 11.8 | 5.0 | ||
| 2013-09-01T23:39 | 3261 | 692 | 10.6 | 4.1 | ||
| 2013-09-01T23:39 | 3287 | 690 | 10.4 | 5.8 | ||
| 2013-09-01T23:39 | 3300 | 688 | 89 | 9.0 | ||
| 2013-09-01T23:39 | 3326 | 686 | 10.0 | 5.4 | ||
| 2013-09-01T23:39 | 3395 | 681 | 9.4 | 6.3 | ||
| 2013-09-01T23:39 | 3426 | 678 | 9.2 | 5.9 | ||
| 2013-09-01T23:39 | 3444 | 677 | 9.2 | 4.2 | ||
| 2013-09-01T23:39 | 3451 | 676 | 9.1 | 5.8 | ||
| 2013-09-01T23:39 | 3463 | 675 | 9.1 | 5.7 | ||
| 2013-09-01T23:40 | 3599 | 664 | 8.4 | 4.2 | ||
| 2013-09-01T23:40 | 3650 | 660 | 8.2 | 3.3 | ||
| 2013-09-01T23:40 | 3676 | 658 | 90 | 10.0 | ||
| 2013-09-01T23:40 | 3696 | 656 | 8.0 | 1.2 | ||
| 2013-09-01T23:40 | 3836 | 645 | 6.7 | 0.4 | ||
| 2013-09-01T23:41 | 3990 | 633 | 5.6 | 1.0 | ||
| 2013-09-01T23:41 | 4019 | 631 | 5.5 | 0.3 | ||
| 2013-09-01T23:41 | 4041 | 629 | 93 | 9.0 | ||
| 2013-09-01T23:42 | 4283 | 611 | 4.6 | -0.2 | ||
| 2013-09-01T23:42 | 4296 | 610 | 4.6 | -2.3 | ||
| 2013-09-01T23:42 | 4405 | 602 | 95 | 8.0 | ||
| 2013-09-01T23:42 | 4411 | 601 | 4.3 | -3.7 | ||
| 2013-09-01T23:42 | 4487 | 596 | 3.9 | -7.9 | ||
| 2013-09-01T23:43 | 4583 | 589 | 3.1 | -6.9 | ||
| 2013-09-01T23:43 | 4680 | 582 | 2.5 | -4.9 | ||
| 2013-09-01T23:43 | 4733 | 578 | 2.1 | -6.7 | ||
| 2013-09-01T23:43 | 4750 | 577 | 106 | 9.0 | ||
| 2013-09-01T23:43 | 4859 | 569 | 1.1 | -7.2 | ||
| 2013-09-01T23:44 | 5087 | 553 | 115 | 9.0 | ||
| 2013-09-01T23:44 | 5175 | 547 | -1.1 | -8.3 | ||
| 2013-09-01T23:45 | 5401 | 532 | -3.1 | -9.4 | ||
| 2013-09-01T23:45 | 5443 | 529 | 112 | 8.0 | ||
| 2013-09-01T23:46 | 5663 | 514 | -5.1 | -11.0 | ||
| 2013-09-01T23:46 | 5799 | 506 | 99 | 11.0 | ||
| 2013-09-01T23:46 | 5915 | 498 | -7.4 | -12.7 | ||
| 2013-09-01T23:47 | 6126 | 485 | 90 | 12.0 | ||
| 2013-09-01T23:47 | 6139 | 484 | -8.5 | -14.7 | 89 | 12.0 |
| 2013-09-01T23:47 | 6177 | 482 | 87 | 12.0 | ||
| 2013-09-01T23:47 | 6249 | 477 | -8.6 | -16.9 | ||
| 2013-09-01T23:48 | 6518 | 461 | 80 | 12.0 | ||
| 2013-09-01T23:48 | 6589 | 457 | -11.3 | -19.0 | ||
| 2013-09-01T23:49 | 6834 | 442 | 82 | 10.0 | ||
| 2013-09-01T23:50 | 7126 | 425 | -15.4 | -21.2 | ||
| 2013-09-01T23:50 | 7160 | 424 | 77 | 8.0 | ||
| 2013-09-01T23:50 | 7256 | 418 | -16.4 | -23.1 | ||
| 2013-09-01T23:51 | 7503 | 405 | 54 | 10.0 | ||
| 2013-09-01T23:52 | 7855 | 386 | 54 | 9.0 | ||
| 2013-09-01T23:52 | 7965 | 380 | -22.3 | -26.6 | ||
| 2013-09-01T23:53 | 8181 | 369 | 65 | 12.0 | ||
| 2013-09-01T23:53 | 8243 | 366 | 61 | 12.0 | ||
| 2013-09-01T23:53 | 8331 | 362 | -25.1 | -29.0 | ||
| 2013-09-01T23:54 | 8535 | 352 | 68 | 11.0 | ||
| 2013-09-01T23:55 | 8824 | 338 | -29.0 | -32.3 | ||
| 2013-09-01T23:55 | 8896 | 334 | 74 | 11.0 | ||
| 2013-09-01T23:56 | 9250 | 318 | 74 | 10.0 | ||
| 2013-09-01T23:57 | 9624 | 302 | 87 | 10.0 | ||
| 2013-09-01T23:58 | 9978 | 287 | 80 | 11.0 | ||
| 2013-09-01T23:59 | 10224 | 277 | -40.0 | -45.0 | ||
| 2013-09-01T23:59 | 10340 | 272 | 75 | 10.0 | ||
| 2013-09-02T00:00 | 10726 | 257 | 80 | 11.0 | ||
| 2013-09-02T00:00 | 10864 | 252 | -43.2 | |||
| 2013-09-02T00:01 | 11123 | 242 | -43.0 | |||
| 2013-09-02T00:01 | 11224 | 239 | 77 | 14.0 | ||
| 2013-09-02T00:02 | 11536 | 228 | 77 | 10.0 | ||
| 2013-09-02T00:03 | 11818 | 218 | -46.4 | |||
| 2013-09-02T00:03 | 11909 | 215 | 86 | 9.0 | ||
| 2013-09-02T00:04 | 12254 | 204 | 88 | 11.0 | ||
| 2013-09-02T00:05 | 12583 | 194 | 93 | 11.0 | ||
| 2013-09-02T00:05 | 12640 | 193 | -51.5 | |||
| 2013-09-02T00:06 | 12947 | 184 | 86 | 10.0 | ||
| 2013-09-02T00:07 | 13343 | 173 | 74 | 12.0 | ||
| 2013-09-02T00:07 | 13388 | 171 | -57.3 | |||
| 2013-09-02T00:08 | 13712 | 163 | 69 | 15.0 | ||
| 2013-09-02T00:09 | 14111 | 153 | 76 | 17.0 | ||
| 2013-09-02T00:09 | 14160 | 152 | 76 | 17.0 | ||
| 2013-09-02T00:09 | 14181 | 151 | 76 | 17.0 | ||
| 2013-09-02T00:10 | 14501 | 143 | -63.8 | |||
| 2013-09-02T00:11 | 14966 | 133 | -67.2 | |||
| 2013-09-02T00:11 | 15006 | 132 | 83 | 13.0 | ||
| 2013-09-02T00:11 | 15062 | 131 | -67.6 | |||
| 2013-09-02T00:12 | 15469 | 122 | 84 | 14.0 | ||
| 2013-09-02T00:13 | 15881 | 114 | -70.8 | |||
| 2013-09-02T00:13 | 15930 | 113 | 93 | 19.0 | ||
| 2013-09-02T00:13 | 16005 | 112 | -71.5 | 95 | 20.0 | |
| 2013-09-02T00:13 | 16048 | 111 | 95 | 20.0 | ||
| 2013-09-02T00:13 | 16092 | 110 | -72.1 | 95 | 19.0 | |
| 2013-09-02T00:14 | 16229 | 107 | -71.6 | |||
| 2013-09-02T00:14 | 16354 | 105 | -71.1 | |||
| 2013-09-02T00:14 | 16478 | 103 | 91 | 15.0 | ||
| 2013-09-02T00:14 | 16516 | 102 | -71.4 | |||
| 2013-09-02T00:14 | 16651 | 100 | -72.0 | 87 | 14.0 | |
| 2013-09-02T00:15 | 16975 | 95 | -72.9 | |||
| 2013-09-02T00:15 | 17020 | 94 | 98 | 18.0 | ||
| 2013-09-02T00:15 | 17094 | 93 | -72.8 | |||
| 2013-09-02T00:16 | 17324 | 89 | -72.1 | |||
| 2013-09-02T00:16 | 17527 | 86 | -70.9 | |||
| 2013-09-02T00:16 | 17560 | 86 | 90 | 18.0 | ||
| 2013-09-02T00:16 | 17776 | 83 | -71.2 | |||
| 2013-09-02T00:17 | 17834 | 82 | -70.9 | |||
| 2013-09-02T00:17 | 17918 | 81 | -70.8 | |||
| 2013-09-02T00:17 | 17994 | 80 | -70.1 | |||
| 2013-09-02T00:17 | 18000 | 80 | 100 | 16.0 | ||
| 2013-09-02T00:17 | 18072 | 79 | -69.6 | |||
| 2013-09-02T00:17 | 18122 | 78 | -69.8 | 101 | 17.0 | |
| 2013-09-02T11:30 | 9 | 1010 | 28.8 | 24.2 | 110 | 6.0 |
| 2013-09-02T11:31 | 320 | 975 | 117 | 6.0 | ||
| 2013-09-02T11:32 | 645 | 940 | 123 | 7.0 | ||
| 2013-09-02T11:32 | 691 | 935 | 22.8 | 20.5 | ||
| 2013-09-02T11:32 | 772 | 927 | 22.1 | 20.2 | ||
| 2013-09-02T11:33 | 994 | 903 | 126 | 9.0 | ||
| 2013-09-02T11:33 | 1041 | 898 | 20.9 | 16.5 | ||
| 2013-09-02T11:33 | 1161 | 886 | 20.4 | 14.1 | ||
| 2013-09-02T11:34 | 1178 | 884 | 20.3 | 15.5 | ||
| 2013-09-02T11:34 | 1246 | 877 | 20.0 | 13.7 | ||
| 2013-09-02T11:34 | 1315 | 870 | 19.7 | 12.2 | ||
| 2013-09-02T11:34 | 1338 | 868 | 133 | 9.0 | ||
| 2013-09-02T11:34 | 1442 | 857 | 18.6 | 11.9 | ||
| 2013-09-02T11:35 | 1548 | 847 | 17.7 | 14.0 | ||
| 2013-09-02T11:35 | 1566 | 845 | 17.5 | 12.8 | ||
| 2013-09-02T11:35 | 1623 | 839 | 17.4 | 10.5 | ||
| 2013-09-02T11:35 | 1692 | 833 | 17.0 | 13.3 | ||
| 2013-09-02T11:35 | 1705 | 832 | 144 | 8.0 | ||
| 2013-09-02T11:35 | 1769 | 825 | 17.1 | 8.5 | ||
| 2013-09-02T11:35 | 1802 | 822 | 17.0 | 11.3 | ||
| 2013-09-02T11:35 | 1834 | 819 | 16.8 | 10.0 | ||
| 2013-09-02T11:35 | 1853 | 817 | 16.7 | 12.0 | ||
| 2013-09-02T11:36 | 1916 | 811 | 16.5 | 9.2 | ||
| 2013-09-02T11:36 | 2010 | 802 | 16.1 | 9.3 | ||
| 2013-09-02T11:36 | 2081 | 796 | 15.4 | 10.0 | 154 | 9.0 |
| 2013-09-02T11:36 | 2121 | 792 | 15.1 | 10.1 | ||
| 2013-09-02T11:36 | 2155 | 789 | 14.9 | 9.5 | ||
| 2013-09-02T11:36 | 2188 | 786 | 14.7 | 9.1 | ||
| 2013-09-02T11:36 | 2199 | 785 | 14.7 | 10.5 | ||
| 2013-09-02T11:37 | 2388 | 767 | 13.6 | 10.8 | ||
| 2013-09-02T11:37 | 2417 | 765 | 151 | 11.0 | ||
| 2013-09-02T11:37 | 2423 | 764 | 13.8 | 6.7 | ||
| 2013-09-02T11:37 | 2441 | 763 | 13.8 | 9.0 | ||
| 2013-09-02T11:37 | 2488 | 758 | 13.6 | 8.7 | 151 | 11.0 |
| 2013-09-02T11:37 | 2518 | 756 | 13.6 | 5.2 | ||
| 2013-09-02T11:37 | 2573 | 751 | 13.6 | 2.5 | ||
| 2013-09-02T11:37 | 2591 | 749 | 13.4 | 1.1 | ||
| 2013-09-02T11:38 | 2616 | 747 | 13.2 | 4.6 | ||
| 2013-09-02T11:38 | 2672 | 742 | 12.9 | 4.6 | ||
| 2013-09-02T11:38 | 2703 | 739 | 13.0 | 2.5 | ||
| 2013-09-02T11:38 | 2721 | 738 | 13.1 | -3.2 | ||
| 2013-09-02T11:38 | 2740 | 736 | 13.2 | -2.3 | ||
| 2013-09-02T11:38 | 2776 | 733 | 13.2 | -2.7 | ||
| 2013-09-02T11:38 | 2783 | 732 | 147 | 10.0 | ||
| 2013-09-02T11:38 | 2807 | 730 | 13.1 | -1.3 | ||
| 2013-09-02T11:38 | 2838 | 727 | 13.1 | -3.6 | ||
| 2013-09-02T11:38 | 2887 | 723 | 12.9 | -3.8 | ||
| 2013-09-02T11:38 | 2906 | 722 | 12.7 | -0.6 | ||
| 2013-09-02T11:39 | 2965 | 716 | 12.7 | -7.9 | ||
| 2013-09-02T11:39 | 3006 | 713 | 12.5 | -3.3 | ||
| 2013-09-02T11:39 | 3018 | 712 | 12.4 | -1.2 | ||
| 2013-09-02T11:39 | 3130 | 703 | 11.9 | -6.5 | ||
| 2013-09-02T11:39 | 3142 | 702 | 138 | 8.0 | ||
| 2013-09-02T11:39 | 3184 | 698 | 11.4 | -7.9 | ||
| 2013-09-02T11:39 | 3196 | 697 | 11.3 | -1.5 | ||
| 2013-09-02T11:39 | 3255 | 692 | 11.0 | -2.8 | ||
| 2013-09-02T11:39 | 3303 | 688 | 11.0 | -6.8 | ||
| 2013-09-02T11:40 | 3357 | 684 | 10.7 | -6.2 | ||
| 2013-09-02T11:40 | 3424 | 678 | 10.4 | -8.3 | ||
| 2013-09-02T11:40 | 3491 | 673 | 10.1 | -13.2 | ||
| 2013-09-02T11:40 | 3503 | 672 | 128 | 9.0 | ||
| 2013-09-02T11:40 | 3544 | 669 | 9.8 | -14.1 | ||
| 2013-09-02T11:40 | 3628 | 662 | 9.4 | -17.7 | ||
| 2013-09-02T11:41 | 3775 | 650 | 8.5 | -21.4 | ||
| 2013-09-02T11:41 | 3815 | 647 | 8.2 | -16.2 | ||
| 2013-09-02T11:41 | 3833 | 646 | 8.1 | -7.6 | ||
| 2013-09-02T11:41 | 3857 | 644 | 7.9 | -8.2 | 128 | 9.0 |
| 2013-09-02T11:41 | 3863 | 643 | 7.8 | -9.6 | ||
| 2013-09-02T11:41 | 3880 | 642 | 7.7 | -6.1 | ||
| 2013-09-02T11:41 | 3892 | 641 | 7.6 | -6.9 | ||
| 2013-09-02T11:41 | 3916 | 639 | 7.5 | -8.1 | ||
| 2013-09-02T11:41 | 3968 | 635 | 7.3 | -7.9 | ||
| 2013-09-02T11:41 | 3997 | 633 | 7.2 | -13.7 | ||
| 2013-09-02T11:41 | 4021 | 631 | 7.2 | -10.1 | ||
| 2013-09-02T11:42 | 4068 | 628 | 7.0 | -13.3 | ||
| 2013-09-02T11:42 | 4170 | 620 | 6.4 | -16.2 | ||
| 2013-09-02T11:42 | 4211 | 617 | 124 | 9.0 | ||
| 2013-09-02T11:42 | 4276 | 612 | 5.7 | -20.6 | ||
| 2013-09-02T11:43 | 4452 | 599 | 5.1 | -21.1 | ||
| 2013-09-02T11:43 | 4557 | 591 | 4.1 | -12.8 | ||
| 2013-09-02T11:43 | 4576 | 590 | 110 | 10.0 | ||
| 2013-09-02T11:44 | 4844 | 571 | 1.5 | -13.8 | ||
| 2013-09-02T11:44 | 4887 | 568 | 1.3 | -15.7 | ||
| 2013-09-02T11:44 | 4950 | 563 | 109 | 11.0 | ||
| 2013-09-02T11:44 | 5097 | 553 | -0.2 | -13.5 | ||
| 2013-09-02T11:45 | 5221 | 544 | -1.2 | -16.2 | ||
| 2013-09-02T11:45 | 5339 | 536 | 114 | 10.0 | ||
| 2013-09-02T11:45 | 5379 | 534 | -2.4 | -18.0 | ||
| 2013-09-02T11:45 | 5491 | 526 | -2.7 | -17.1 | ||
| 2013-09-02T11:46 | 5724 | 511 | 125 | 11.0 | ||
| 2013-09-02T11:46 | 5876 | 501 | -4.9 | -21.5 | ||
| 2013-09-02T11:47 | 5905 | 499 | -5.0 | -19.5 | ||
| 2013-09-02T11:47 | 6077 | 488 | 130 | 13.0 | ||
| 2013-09-02T11:47 | 6190 | 482 | -6.5 | -24.2 | ||
| 2013-09-02T11:48 | 6266 | 477 | -7.1 | -24.3 | ||
| 2013-09-02T11:48 | 6433 | 467 | 124 | 15.0 | ||
| 2013-09-02T11:49 | 6655 | 454 | -9.4 | -24.6 | 122 | 16.0 |
| 2013-09-02T11:49 | 6673 | 452 | -9.4 | -23.4 | ||
| 2013-09-02T11:49 | 6692 | 451 | -9.6 | -21.3 | ||
| 2013-09-02T11:49 | 6741 | 449 | 123 | 16.0 | ||
| 2013-09-02T11:49 | 6747 | 448 | 123 | 16.0 | ||
| 2013-09-02T11:49 | 6765 | 447 | -10.1 | -25.6 | ||
| 2013-09-02T11:49 | 6796 | 445 | 125 | 16.0 | ||
| 2013-09-02T11:49 | 6820 | 444 | -10.6 | -21.3 | ||
| 2013-09-02T11:49 | 6882 | 440 | -11.2 | -15.4 | ||
| 2013-09-02T11:50 | 7126 | 427 | -12.3 | -17.3 | ||
| 2013-09-02T11:50 | 7155 | 425 | 126 | 16.0 | ||
| 2013-09-02T11:50 | 7173 | 424 | -12.5 | -18.1 | ||
| 2013-09-02T11:51 | 7451 | 409 | -14.5 | -21.0 | ||
| 2013-09-02T11:51 | 7488 | 407 | 125 | 15.0 | ||
| 2013-09-02T11:51 | 7568 | 402 | -15.2 | -23.3 | ||
| 2013-09-02T11:52 | 7821 | 389 | 134 | 16.0 | ||
| 2013-09-02T11:52 | 7932 | 383 | -17.9 | -23.8 | ||
| 2013-09-02T11:52 | 7977 | 381 | -18.3 | -24.0 | ||
| 2013-09-02T11:53 | 8156 | 372 | 143 | 16.0 | ||
| 2013-09-02T11:53 | 8211 | 369 | -19.6 | -27.6 | ||
| 2013-09-02T11:54 | 8494 | 355 | 143 | 16.0 | ||
| 2013-09-02T11:54 | 8594 | 351 | -22.2 | -29.0 | ||
| 2013-09-02T11:55 | 8871 | 338 | 156 | 16.0 | ||
| 2013-09-02T11:56 | 9180 | 324 | -26.8 | -31.9 | ||
| 2013-09-02T11:56 | 9246 | 321 | 153 | 20.0 | ||
| 2013-09-02T11:56 | 9287 | 319 | -27.7 | -33.6 | ||
| 2013-09-02T11:57 | 9499 | 310 | -28.8 | -39.5 | ||
| 2013-09-02T11:57 | 9554 | 307 | 151 | 23.0 | ||
| 2013-09-02T11:57 | 9572 | 306 | 150 | 23.0 | ||
| 2013-09-02T11:57 | 9596 | 305 | -29.5 | -37.5 | ||
| 2013-09-02T11:57 | 9651 | 303 | -29.9 | -38.7 | ||
| 2013-09-02T11:58 | 9868 | 294 | -31.3 | -40.7 | ||
| 2013-09-02T11:58 | 9958 | 290 | 156 | 21.0 | ||
| 2013-09-02T11:58 | 9990 | 289 | -32.1 | -40.1 | ||
| 2013-09-02T11:59 | 10349 | 274 | 161 | 22.0 | ||
| 2013-09-02T12:00 | 10624 | 264 | -37.5 | -47.9 | ||
| 2013-09-02T12:00 | 10725 | 260 | 163 | 20.0 | ||
| 2013-09-02T12:00 | 10770 | 258 | -38.4 | -51.8 | ||
| 2013-09-02T12:01 | 10958 | 251 | -40.0 | -53.2 | ||
| 2013-09-02T12:01 | 11129 | 245 | 164 | 19.0 | ||
| 2013-09-02T12:02 | 11520 | 231 | 170 | 19.0 | ||
| 2013-09-02T12:03 | 11931 | 217 | 170 | 20.0 | ||
| 2013-09-02T12:03 | 12066 | 213 | -49.4 | |||
| 2013-09-02T12:04 | 12356 | 204 | 162 | 23.0 | ||
| 2013-09-02T12:05 | 12765 | 191 | 163 | 26.0 | ||
| 2013-09-02T12:06 | 13194 | 179 | 163 | 28.0 | ||
| 2013-09-02T12:06 | 13201 | 178 | 163 | 28.0 | ||
| 2013-09-02T12:06 | 13242 | 177 | 162 | 28.0 | ||
| 2013-09-02T12:06 | 13290 | 176 | 163 | 28.0 | ||
| 2013-09-02T12:07 | 13597 | 167 | 163 | 27.0 | ||
| 2013-09-02T12:08 | 14053 | 155 | 167 | 23.0 | ||
| 2013-09-02T12:08 | 14201 | 152 | -66.9 | |||
| 2013-09-02T12:09 | 14299 | 149 | -67.2 | |||
| 2013-09-02T12:09 | 14537 | 143 | 149 | 15.0 | ||
| 2013-09-02T12:09 | 14644 | 141 | -68.3 | |||
| 2013-09-02T12:10 | 14897 | 135 | -70.2 | |||
| 2013-09-02T12:10 | 15007 | 133 | -71.0 | |||
| 2013-09-02T12:10 | 15040 | 132 | 127 | 17.0 | ||
| 2013-09-02T12:10 | 15275 | 127 | -72.0 | |||
| 2013-09-02T12:11 | 15537 | 121 | 116 | 18.0 | ||
| 2013-09-02T12:12 | 16037 | 111 | 120 | 17.0 | ||
| 2013-09-02T12:12 | 16078 | 110 | -72.7 | |||
| 2013-09-02T12:13 | 16383 | 105 | -71.0 | |||
| 2013-09-02T12:13 | 16516 | 103 | 106 | 16.0 | ||
| 2013-09-02T12:13 | 16664 | 100 | -69.6 | 100 | 17.0 | |
| 2013-09-02T12:14 | 16979 | 95 | 99 | 16.0 | ||
| 2013-09-02T12:14 | 17115 | 93 | -69.2 | |||
| 2013-09-02T12:15 | 17461 | 88 | 96 | 18.0 | ||
| 2013-09-02T12:16 | 17689 | 84 | -71.5 | |||
| 2013-09-02T12:16 | 17922 | 81 | 96 | 16.0 | ||
| 2013-09-02T12:17 | 18327 | 76 | 108 | 15.0 | ||
| 2013-09-02T12:17 | 18393 | 75 | -70.0 | |||
| 2013-09-02T12:18 | 18719 | 71 | 103 | 13.0 | ||
| 2013-09-02T12:19 | 19000 | 68 | -69.2 | |||
| 2013-09-02T12:19 | 19151 | 66 | 90 | 18.0 | ||
| 2013-09-02T12:20 | 19467 | 62 | -67.5 | |||
| 2013-09-02T12:20 | 19589 | 61 | 79 | 16.0 | ||
| 2013-09-02T12:20 | 19649 | 61 | -67.8 | |||
| 2013-09-02T12:21 | 20014 | 57 | 88 | 20.0 | ||
| 2013-09-02T12:22 | 20218 | 55 | -64.7 | |||
| 2013-09-02T12:22 | 20400 | 54 | 87 | 20.0 | ||
| 2013-09-02T12:23 | 20690 | 51 | -62.2 | |||
| 2013-09-02T12:23 | 20793 | 50 | 84 | 20.0 | ||
| 2013-09-02T12:24 | 21075 | 48 | -62.8 | |||
| 2013-09-02T12:24 | 21173 | 47 | -62.9 | |||
| 2013-09-02T12:25 | 21561 | 44 | 94 | 22.0 | ||
| 2013-09-02T12:26 | 21798 | 43 | -60.1 | |||
| 2013-09-02T12:26 | 21950 | 42 | 106 | 20.0 | ||
| 2013-09-02T12:26 | 22082 | 41 | -60.6 | |||
| 2013-09-02T12:27 | 22342 | 39 | 97 | 16.0 | ||
| 2013-09-02T12:28 | 22736 | 37 | 86 | 18.0 | ||
| 2013-09-02T12:29 | 23127 | 35 | 89 | 18.0 | ||
| 2013-09-02T12:29 | 23230 | 34 | -56.8 | |||
| 2013-09-02T12:30 | 23513 | 33 | 84 | 16.0 | ||
| 2013-09-02T12:31 | 23897 | 31 | 68 | 20.0 | ||
| 2013-09-02T12:32 | 24259 | 29 | -54.9 | |||
| 2013-09-02T12:32 | 24272 | 29 | 74 | 26.0 | ||
| 2013-09-02T12:33 | 24665 | 27 | 86 | 23.0 | ||
| 2013-09-02T12:34 | 25086 | 25 | -51.4 | |||
| 2013-09-02T12:35 | 25542 | 24 | 86 | 17.0 | ||
| 2013-09-02T12:36 | 25821 | 23 | -51.6 | |||
| 2013-09-02T12:36 | 25983 | 22 | 77 | 17.0 | ||
| 2013-09-02T12:37 | 26407 | 21 | 72 | 18.0 | ||
| 2013-09-02T12:38 | 26783 | 20 | -52.2 | |||
| 2013-09-02T12:38 | 26824 | 19 | 85 | 20.0 | ||
| 2013-09-02T12:39 | 27256 | 18 | 89 | 23.0 | ||
| 2013-09-02T12:39 | 27444 | 18 | -52.5 | |||
| 2013-09-02T12:40 | 27714 | 17 | 92 | 28.0 | ||
| 2013-09-02T12:41 | 27991 | 16 | 97 | 30.0 | ||
| 2013-09-02T12:41 | 28030 | 16 | 97 | 30.0 | ||
| 2013-09-02T12:41 | 28184 | 16 | 96 | 29.0 | ||
| 2013-09-02T12:42 | 28631 | 15 | -44.4 | 90 | 24.0 | |
| 2013-09-02T12:43 | 29061 | 14 | 90 | 25.0 | ||
| 2013-09-02T12:44 | 29529 | 13 | 79 | 24.0 | ||
| 2013-09-02T12:45 | 30038 | 12 | 81 | 22.0 | ||
| 2013-09-02T12:46 | 30541 | 11 | 88 | 27.0 | ||
| 2013-09-02T12:47 | 30890 | 11 | -43.9 | |||
| 2013-09-02T12:47 | 31012 | 10 | 101 | 21.0 | ||
| 2013-09-02T12:48 | 31456 | 10 | 89 | 24.0 | ||
| 2013-09-02T12:49 | 31708 | 9 | -42.1 | |||
| 2013-09-02T12:49 | 31913 | 9 | 93 | 24.0 | ||
| 2013-09-02T12:50 | 32185 | 9 | -37.9 | |||
| 2013-09-02T12:50 | 32389 | 8 | 82 | 22.0 | ||
| 2013-09-02T12:50 | 32611 | 8 | -34.6 | |||
| 2013-09-02T12:51 | 32851 | 8 | 61 | 28.0 | ||
| 2013-09-02T12:51 | 32947 | 8 | -33.2 | 66 | 30.0 | |
| 2013-09-02T23:30 | 9 | 1011 | 30.5 | 26.0 | 110 | 9.0 |
| 2013-09-02T23:30 | 23 | 1010 | 28.7 | 22.9 | ||
| 2013-09-02T23:31 | 241 | 985 | 27.1 | 22.3 | ||
| 2013-09-02T23:31 | 364 | 972 | 111 | 10.0 | ||
| 2013-09-02T23:31 | 370 | 971 | 111 | 10.0 | ||
| 2013-09-02T23:31 | 381 | 970 | 111 | 10.0 | ||
| 2013-09-02T23:31 | 387 | 969 | 112 | 10.0 | ||
| 2013-09-02T23:31 | 459 | 961 | 25.7 | 21.6 | ||
| 2013-09-02T23:32 | 721 | 933 | 116 | 9.0 | ||
| 2013-09-02T23:33 | 1113 | 892 | 120 | 9.0 | ||
| 2013-09-02T23:33 | 1234 | 880 | 20.1 | 18.4 | ||
| 2013-09-02T23:34 | 1427 | 860 | 19.1 | 16.9 | ||
| 2013-09-02T23:34 | 1449 | 858 | 119 | 10.0 | ||
| 2013-09-02T23:35 | 1790 | 825 | 119 | 11.0 | ||
| 2013-09-02T23:35 | 1965 | 808 | 120 | 11.0 | ||
| 2013-09-02T23:35 | 1972 | 807 | 120 | 11.0 | ||
| 2013-09-02T23:36 | 2023 | 802 | 15.9 | 13.7 | ||
| 2013-09-02T23:36 | 2131 | 792 | 15.6 | 12.7 | ||
| 2013-09-02T23:36 | 2156 | 790 | 15.6 | 13.3 | ||
| 2013-09-02T23:36 | 2168 | 789 | 124 | 11.0 | ||
| 2013-09-02T23:37 | 2518 | 757 | 128 | 10.0 | ||
| 2013-09-02T23:37 | 2547 | 754 | 13.5 | 11.0 | ||
| 2013-09-02T23:38 | 2701 | 741 | 13.2 | 9.3 | ||
| 2013-09-02T23:38 | 2735 | 738 | 13.1 | 8.6 | ||
| 2013-09-02T23:38 | 2862 | 727 | 126 | 9.0 | ||
| 2013-09-02T23:39 | 3171 | 701 | 10.5 | 6.1 | ||
| 2013-09-02T23:39 | 3218 | 697 | 120 | 9.0 | ||
| 2013-09-02T23:39 | 3382 | 683 | 9.7 | 3.9 | ||
| 2013-09-02T23:40 | 3418 | 680 | 9.4 | 2.3 | ||
| 2013-09-02T23:40 | 3448 | 677 | 9.1 | 4.1 | ||
| 2013-09-02T23:40 | 3490 | 674 | 8.8 | 2.6 | ||
| 2013-09-02T23:40 | 3508 | 673 | 8.8 | 4.2 | ||
| 2013-09-02T23:40 | 3543 | 670 | 8.6 | 2.2 | ||
| 2013-09-02T23:40 | 3579 | 667 | 119 | 9.0 | ||
| 2013-09-02T23:40 | 3585 | 666 | 8.3 | 3.6 | ||
| 2013-09-02T23:40 | 3684 | 658 | 7.6 | 3.8 | ||
| 2013-09-02T23:41 | 3765 | 652 | 7.0 | 3.1 | ||
| 2013-09-02T23:41 | 3923 | 640 | 118 | 8.0 | ||
| 2013-09-02T23:41 | 3934 | 639 | 6.1 | 0.2 | ||
| 2013-09-02T23:41 | 4025 | 632 | 5.8 | 0.4 | ||
| 2013-09-02T23:42 | 4116 | 625 | 5.4 | 0.0 | ||
| 2013-09-02T23:42 | 4264 | 613 | 4.5 | -0.3 | 129 | 9.0 |
| 2013-09-02T23:43 | 4578 | 590 | 3.0 | -0.8 | ||
| 2013-09-02T23:43 | 4607 | 588 | 126 | 9.0 | ||
| 2013-09-02T23:43 | 4706 | 581 | 2.3 | -2.0 | ||
| 2013-09-02T23:44 | 4830 | 572 | 1.5 | -1.7 | ||
| 2013-09-02T23:44 | 4924 | 565 | 0.9 | -2.0 | ||
| 2013-09-02T23:44 | 4948 | 564 | 115 | 9.0 | ||
| 2013-09-02T23:44 | 4985 | 561 | 0.4 | -1.0 | ||
| 2013-09-02T23:44 | 5009 | 559 | 0.3 | -2.1 | ||
| 2013-09-02T23:44 | 5076 | 555 | -0.1 | -1.8 | ||
| 2013-09-02T23:45 | 5130 | 551 | -0.4 | -2.9 | ||
| 2013-09-02T23:45 | 5254 | 543 | -1.0 | -4.7 | ||
| 2013-09-02T23:45 | 5308 | 539 | 116 | 11.0 | ||
| 2013-09-02T23:45 | 5337 | 537 | -1.5 | -5.9 | ||
| 2013-09-02T23:45 | 5396 | 533 | -1.7 | -4.9 | ||
| 2013-09-02T23:45 | 5480 | 528 | -2.1 | -5.9 | ||
| 2013-09-02T23:46 | 5509 | 526 | -2.2 | -7.9 | ||
| 2013-09-02T23:46 | 5616 | 519 | -3.1 | -5.3 | ||
| 2013-09-02T23:46 | 5664 | 516 | 113 | 13.0 | ||
| 2013-09-02T23:46 | 5781 | 508 | 113 | 14.0 | ||
| 2013-09-02T23:46 | 5805 | 507 | 112 | 14.0 | ||
| 2013-09-02T23:46 | 5811 | 506 | 113 | 14.0 | ||
| 2013-09-02T23:46 | 5828 | 505 | 113 | 14.0 | ||
| 2013-09-02T23:47 | 5881 | 502 | -4.9 | -7.5 | ||
| 2013-09-02T23:47 | 5916 | 499 | 115 | 14.0 | ||
| 2013-09-02T23:47 | 5974 | 496 | 116 | 14.0 | ||
| 2013-09-02T23:47 | 5980 | 495 | -5.9 | -7.6 | ||
| 2013-09-02T23:47 | 6015 | 493 | 115 | 13.0 | ||
| 2013-09-02T23:47 | 6131 | 486 | -6.3 | -8.4 | ||
| 2013-09-02T23:48 | 6347 | 473 | -7.9 | -10.0 | ||
| 2013-09-02T23:48 | 6365 | 472 | -7.9 | -11.4 | ||
| 2013-09-02T23:48 | 6371 | 471 | 115 | 13.0 | ||
| 2013-09-02T23:48 | 6389 | 470 | -7.9 | -9.7 | ||
| 2013-09-02T23:48 | 6540 | 461 | -8.5 | -10.7 | ||
| 2013-09-02T23:49 | 6715 | 451 | 123 | 12.0 | ||
| 2013-09-02T23:49 | 6744 | 449 | -9.5 | -11.7 | ||
| 2013-09-02T23:49 | 6873 | 442 | -10.2 | -13.5 | ||
| 2013-09-02T23:50 | 6924 | 439 | -10.4 | -14.5 | ||
| 2013-09-02T23:50 | 6975 | 436 | -10.6 | -13.4 | ||
| 2013-09-02T23:50 | 7044 | 432 | -10.9 | -15.5 | ||
| 2013-09-02T23:50 | 7088 | 430 | 126 | 13.0 | ||
| 2013-09-02T23:51 | 7283 | 419 | -12.0 | -18.6 | ||
| 2013-09-02T23:51 | 7468 | 409 | 118 | 12.0 | ||
| 2013-09-02T23:51 | 7612 | 401 | -14.0 | -21.3 | ||
| 2013-09-02T23:51 | 7645 | 399 | -14.2 | -19.9 | ||
| 2013-09-02T23:52 | 7704 | 396 | -14.6 | -23.0 | ||
| 2013-09-02T23:52 | 7858 | 388 | 126 | 12.0 | ||
| 2013-09-02T23:53 | 8186 | 372 | -18.2 | -25.9 | ||
| 2013-09-02T23:53 | 8209 | 371 | 126 | 12.0 | ||
| 2013-09-02T23:54 | 8424 | 360 | -20.2 | -27.3 | ||
| 2013-09-02T23:54 | 8568 | 353 | 122 | 10.0 | ||
| 2013-09-02T23:54 | 8686 | 347 | -21.9 | -30.0 | ||
| 2013-09-02T23:55 | 8957 | 335 | 119 | 11.0 | ||
| 2013-09-02T23:55 | 9002 | 333 | -24.3 | -32.6 | ||
| 2013-09-02T23:56 | 9308 | 319 | -26.8 | -33.9 | ||
| 2013-09-02T23:56 | 9326 | 318 | 123 | 10.0 | ||
| 2013-09-02T23:57 | 9698 | 302 | 126 | 11.0 | ||
| 2013-09-02T23:57 | 9728 | 301 | -30.5 | -37.4 | ||
| 2013-09-02T23:58 | 9910 | 293 | -32.3 | -37.1 | ||
| 2013-09-02T23:58 | 10059 | 287 | -33.1 | -37.7 | ||
| 2013-09-02T23:59 | 10436 | 272 | 128 | 9.0 | ||
| 2013-09-02T23:59 | 10501 | 269 | -36.6 | -43.3 | ||
| 2013-09-03T00:00 | 10724 | 261 | -38.5 | -45.1 | ||
| 2013-09-03T00:00 | 10806 | 258 | 127 | 10.0 | ||
| 2013-09-03T00:00 | 10875 | 255 | -40.0 | -46.8 | ||
| 2013-09-03T00:01 | 11175 | 244 | 122 | 9.0 | ||
| 2013-09-03T00:02 | 11552 | 231 | 119 | 8.0 | ||
| 2013-09-03T00:03 | 11925 | 218 | 119 | 9.0 | ||
| 2013-09-03T00:04 | 12309 | 206 | 131 | 5.0 | ||
| 2013-09-03T00:05 | 12686 | 194 | 166 | 4.0 | ||
| 2013-09-03T00:05 | 12749 | 192 | -55.8 | |||
| 2013-09-03T00:06 | 13064 | 183 | 173 | 7.0 | ||
| 2013-09-03T00:07 | 13436 | 172 | 173 | 6.0 | ||
| 2013-09-03T00:08 | 13829 | 161 | 145 | 5.0 | ||
| 2013-09-03T00:09 | 14219 | 151 | 128 | 6.0 | ||
| 2013-09-03T00:09 | 14322 | 149 | -69.0 | |||
| 2013-09-03T00:10 | 14606 | 142 | 122 | 9.0 | ||
| 2013-09-03T00:11 | 15056 | 131 | 109 | 12.0 | ||
| 2013-09-03T00:12 | 15468 | 122 | -78.1 | |||
| 2013-09-03T00:12 | 15590 | 120 | 103 | 15.0 | ||
| 2013-09-03T00:12 | 15772 | 116 | -77.4 | |||
| 2013-09-03T00:13 | 15977 | 112 | -76.5 | |||
| 2013-09-03T00:13 | 16015 | 111 | 102 | 20.0 | ||
| 2013-09-03T00:13 | 16147 | 109 | -74.5 | 103 | 19.0 | |
| 2013-09-03T11:30 | 9 | 1012 | 28.1 | 25.9 | 100 | 4.0 |
| 2013-09-03T11:30 | 80 | 1004 | 27.7 | 25.1 | ||
| 2013-09-03T11:31 | 368 | 972 | 108 | 7.0 | ||
| 2013-09-03T11:31 | 380 | 971 | 25.3 | 23.9 | ||
| 2013-09-03T11:31 | 515 | 956 | 24.7 | 22.0 | ||
| 2013-09-03T11:32 | 576 | 949 | 116 | 8.0 | ||
| 2013-09-03T11:32 | 595 | 947 | 116 | 8.0 | ||
| 2013-09-03T11:32 | 737 | 932 | 119 | 7.0 | ||
| 2013-09-03T11:33 | 1036 | 901 | 21.7 | 19.3 | ||
| 2013-09-03T11:33 | 1112 | 893 | 122 | 7.0 | ||
| 2013-09-03T11:34 | 1494 | 854 | 115 | 6.0 | ||
| 2013-09-03T11:35 | 1705 | 834 | 18.1 | 16.4 | ||
| 2013-09-03T11:35 | 1865 | 818 | 111 | 7.0 | ||
| 2013-09-03T11:36 | 2129 | 793 | 16.4 | 14.1 | ||
| 2013-09-03T11:36 | 2226 | 785 | 109 | 7.0 | ||
| 2013-09-03T11:37 | 2585 | 752 | 14.3 | 10.3 | ||
| 2013-09-03T11:37 | 2591 | 751 | 109 | 7.0 | ||
| 2013-09-03T11:38 | 2776 | 735 | 13.1 | 9.9 | ||
| 2013-09-03T11:38 | 2800 | 733 | 13.0 | 9.3 | ||
| 2013-09-03T11:38 | 2954 | 720 | 103 | 8.0 | ||
| 2013-09-03T11:38 | 3036 | 713 | 12.0 | 8.3 | ||
| 2013-09-03T11:38 | 3071 | 710 | 11.9 | 8.7 | ||
| 2013-09-03T11:39 | 3193 | 699 | 11.6 | 6.7 | ||
| 2013-09-03T11:39 | 3307 | 690 | 102 | 8.0 | ||
| 2013-09-03T11:39 | 3349 | 686 | 10.5 | 6.6 | ||
| 2013-09-03T11:39 | 3435 | 679 | 10.1 | 6.1 | ||
| 2013-09-03T11:40 | 3504 | 674 | 9.9 | 5.3 | ||
| 2013-09-03T11:40 | 3586 | 667 | 9.3 | 5.1 | ||
| 2013-09-03T11:40 | 3623 | 664 | 9.2 | 5.0 | ||
| 2013-09-03T11:40 | 3667 | 661 | 8.9 | 4.1 | ||
| 2013-09-03T11:40 | 3679 | 660 | 99 | 9.0 | ||
| 2013-09-03T11:40 | 3849 | 646 | 7.7 | 5.5 | ||
| 2013-09-03T11:41 | 4051 | 631 | 6.7 | 2.6 | ||
| 2013-09-03T11:41 | 4064 | 630 | 99 | 10.0 | ||
| 2013-09-03T11:41 | 4128 | 625 | 6.0 | 2.3 | ||
| 2013-09-03T11:41 | 4238 | 616 | 5.3 | 2.0 | ||
| 2013-09-03T11:41 | 4249 | 615 | 98 | 12.0 | ||
| 2013-09-03T11:42 | 4267 | 614 | 97 | 12.0 | ||
| 2013-09-03T11:42 | 4337 | 609 | 4.8 | 2.0 | ||
| 2013-09-03T11:42 | 4354 | 608 | 4.7 | 0.5 | ||
| 2013-09-03T11:42 | 4399 | 604 | 4.4 | 0.5 | ||
| 2013-09-03T11:42 | 4411 | 603 | 4.4 | 1.9 | ||
| 2013-09-03T11:42 | 4428 | 602 | 4.3 | 1.3 | ||
| 2013-09-03T11:42 | 4445 | 601 | 4.3 | -0.5 | ||
| 2013-09-03T11:43 | 4718 | 581 | 3.0 | -1.0 | ||
| 2013-09-03T11:43 | 4735 | 580 | 3.0 | -3.6 | ||
| 2013-09-03T11:43 | 4769 | 577 | 103 | 10.0 | ||
| 2013-09-03T11:43 | 4802 | 575 | 2.6 | -1.6 | ||
| 2013-09-03T11:43 | 4824 | 573 | 2.4 | -1.8 | ||
| 2013-09-03T11:43 | 4863 | 571 | 2.3 | -4.7 | ||
| 2013-09-03T11:43 | 4879 | 570 | 2.3 | -7.1 | ||
| 2013-09-03T11:43 | 4917 | 567 | 2.1 | -5.8 | ||
| 2013-09-03T11:44 | 4940 | 565 | 1.9 | -7.2 | ||
| 2013-09-03T11:44 | 4967 | 563 | 1.7 | -3.6 | ||
| 2013-09-03T11:44 | 5001 | 561 | 1.6 | -3.5 | ||
| 2013-09-03T11:44 | 5023 | 560 | 1.5 | -7.3 | ||
| 2013-09-03T11:44 | 5051 | 558 | 1.4 | -5.1 | ||
| 2013-09-03T11:44 | 5101 | 554 | 101 | 11.0 | ||
| 2013-09-03T11:44 | 5134 | 552 | 0.8 | -7.2 | ||
| 2013-09-03T11:44 | 5151 | 551 | 0.8 | -3.5 | ||
| 2013-09-03T11:44 | 5174 | 549 | 0.7 | -4.5 | ||
| 2013-09-03T11:44 | 5241 | 544 | 0.3 | -7.2 | ||
| 2013-09-03T11:45 | 5341 | 538 | -0.7 | -7.5 | ||
| 2013-09-03T11:45 | 5369 | 536 | -0.9 | -4.8 | ||
| 2013-09-03T11:45 | 5397 | 534 | -1.0 | -4.9 | ||
| 2013-09-03T11:45 | 5426 | 532 | -1.1 | -7.5 | ||
| 2013-09-03T11:45 | 5437 | 531 | 105 | 10.0 | ||
| 2013-09-03T11:45 | 5460 | 530 | -1.2 | -6.9 | ||
| 2013-09-03T11:45 | 5471 | 529 | -1.3 | -11.2 | ||
| 2013-09-03T11:45 | 5499 | 527 | -1.4 | -8.4 | ||
| 2013-09-03T11:45 | 5539 | 525 | -1.7 | -10.5 | ||
| 2013-09-03T11:45 | 5568 | 523 | -2.0 | -10.3 | ||
| 2013-09-03T11:46 | 5644 | 518 | -2.6 | -9.3 | ||
| 2013-09-03T11:46 | 5673 | 516 | -2.8 | -7.1 | ||
| 2013-09-03T11:46 | 5751 | 511 | -3.2 | -9.0 | ||
| 2013-09-03T11:46 | 5787 | 508 | 111 | 11.0 | ||
| 2013-09-03T11:46 | 5859 | 504 | -3.9 | -8.7 | ||
| 2013-09-03T11:46 | 5900 | 501 | -4.1 | -7.9 | ||
| 2013-09-03T11:46 | 5918 | 500 | -4.2 | -7.5 | ||
| 2013-09-03T11:46 | 5935 | 499 | -4.2 | -8.7 | ||
| 2013-09-03T11:46 | 5959 | 497 | -4.4 | -6.4 | ||
| 2013-09-03T11:47 | 5988 | 496 | -4.5 | -8.8 | ||
| 2013-09-03T11:47 | 6000 | 495 | -4.6 | -9.6 | ||
| 2013-09-03T11:47 | 6034 | 493 | -4.7 | -8.5 | ||
| 2013-09-03T11:47 | 6137 | 486 | 108 | 8.0 | ||
| 2013-09-03T11:47 | 6165 | 485 | -5.8 | -9.5 | ||
| 2013-09-03T11:47 | 6188 | 483 | -5.9 | -10.9 | ||
| 2013-09-03T11:47 | 6211 | 482 | -6.1 | -9.8 | ||
| 2013-09-03T11:47 | 6233 | 480 | -6.2 | -10.4 | ||
| 2013-09-03T11:47 | 6250 | 479 | -6.3 | -11.6 | ||
| 2013-09-03T11:47 | 6278 | 478 | -6.5 | -9.7 | ||
| 2013-09-03T11:48 | 6328 | 475 | -6.7 | -10.9 | ||
| 2013-09-03T11:48 | 6356 | 473 | -6.7 | -13.0 | ||
| 2013-09-03T11:48 | 6408 | 470 | -6.9 | -15.3 | ||
| 2013-09-03T11:48 | 6473 | 466 | -7.2 | -17.9 | ||
| 2013-09-03T11:48 | 6479 | 465 | 99 | 8.0 | ||
| 2013-09-03T11:48 | 6539 | 462 | -7.8 | -20.0 | ||
| 2013-09-03T11:48 | 6607 | 458 | -8.3 | -18.4 | ||
| 2013-09-03T11:48 | 6651 | 455 | -8.7 | -20.5 | ||
| 2013-09-03T11:49 | 6773 | 448 | -9.4 | -22.0 | ||
| 2013-09-03T11:49 | 6792 | 447 | -9.5 | -17.1 | ||
| 2013-09-03T11:49 | 6834 | 445 | -9.7 | -17.5 | ||
| 2013-09-03T11:49 | 6846 | 444 | 95 | 8.0 | ||
| 2013-09-03T11:49 | 6864 | 443 | -9.7 | -23.3 | ||
| 2013-09-03T11:49 | 6936 | 439 | -10.0 | -20.2 | ||
| 2013-09-03T11:49 | 6972 | 437 | -10.1 | -28.3 | ||
| 2013-09-03T11:50 | 7062 | 432 | -10.6 | -29.3 | ||
| 2013-09-03T11:50 | 7110 | 429 | -10.9 | -30.6 | ||
| 2013-09-03T11:50 | 7147 | 427 | -11.2 | -31.5 | ||
| 2013-09-03T11:50 | 7207 | 424 | 98 | 9.0 | ||
| 2013-09-03T11:50 | 7260 | 421 | -11.6 | -37.2 | ||
| 2013-09-03T11:50 | 7296 | 419 | -11.8 | -25.2 | ||
| 2013-09-03T11:50 | 7354 | 416 | -12.2 | -21.7 | ||
| 2013-09-03T11:51 | 7390 | 414 | -12.5 | -26.9 | ||
| 2013-09-03T11:51 | 7567 | 404 | 94 | 11.0 | ||
| 2013-09-03T11:51 | 7708 | 397 | -15.1 | -28.8 | ||
| 2013-09-03T11:52 | 7959 | 384 | -17.3 | -31.1 | ||
| 2013-09-03T11:52 | 7966 | 383 | 89 | 11.0 | ||
| 2013-09-03T11:52 | 8035 | 380 | -17.9 | -31.3 | ||
| 2013-09-03T11:52 | 8142 | 374 | -18.8 | -27.6 | ||
| 2013-09-03T11:53 | 8175 | 373 | -19.0 | -24.8 | ||
| 2013-09-03T11:53 | 8213 | 371 | -19.4 | -24.8 | ||
| 2013-09-03T11:53 | 8250 | 369 | -19.6 | -26.8 | ||
| 2013-09-03T11:53 | 8320 | 366 | -20.0 | -26.7 | ||
| 2013-09-03T11:53 | 8353 | 364 | -20.1 | -24.8 | ||
| 2013-09-03T11:53 | 8398 | 362 | -20.1 | -30.5 | ||
| 2013-09-03T11:54 | 8756 | 345 | 84 | 13.0 | ||
| 2013-09-03T11:54 | 8802 | 342 | -23.6 | -32.5 | ||
| 2013-09-03T11:55 | 9007 | 333 | 81 | 14.0 | ||
| 2013-09-03T11:55 | 9020 | 332 | 80 | 14.0 | ||
| 2013-09-03T11:55 | 9149 | 326 | 79 | 14.0 | ||
| 2013-09-03T11:55 | 9246 | 322 | -27.0 | -30.4 | ||
| 2013-09-03T11:56 | 9371 | 316 | -27.9 | -30.4 | ||
| 2013-09-03T11:56 | 9446 | 313 | -28.5 | -32.0 | ||
| 2013-09-03T11:56 | 9554 | 308 | 78 | 13.0 | ||
| 2013-09-03T11:56 | 9730 | 301 | -30.4 | -33.0 | ||
| 2013-09-03T11:57 | 9960 | 291 | -32.4 | -34.2 | ||
| 2013-09-03T11:57 | 10006 | 289 | 83 | 13.0 | ||
| 2013-09-03T11:58 | 10244 | 280 | -35.0 | -37.2 | ||
| 2013-09-03T11:58 | 10423 | 273 | 83 | 15.0 | ||
| 2013-09-03T11:58 | 10547 | 268 | -37.6 | -41.2 | 83 | 15.0 |
| 2013-09-03T11:58 | 10572 | 267 | 82 | 15.0 | ||
| 2013-09-03T11:59 | 10672 | 263 | 86 | 15.0 | ||
| 2013-09-03T11:59 | 10809 | 258 | -40.0 | -43.2 | 87 | 14.0 |
| 2013-09-03T12:00 | 11209 | 243 | 95 | 11.0 | ||
| 2013-09-03T12:01 | 11595 | 229 | 98 | 10.0 | ||
| 2013-09-03T12:02 | 12000 | 216 | 88 | 5.0 | ||
| 2013-09-03T12:02 | 12134 | 211 | -50.6 | |||
| 2013-09-03T12:03 | 12377 | 204 | 14 | 7.0 | ||
| 2013-09-03T12:03 | 12397 | 203 | -51.7 | |||
| 2013-09-03T12:04 | 12761 | 192 | 11 | 10.0 | ||
| 2013-09-03T12:05 | 13164 | 180 | 32 | 10.0 | ||
| 2013-09-03T12:06 | 13555 | 169 | 58 | 11.0 | ||
| 2013-09-03T12:07 | 13975 | 158 | -64.8 | 67 | 13.0 | |
| 2013-09-03T12:08 | 14394 | 147 | 72 | 15.0 | ||
| 2013-09-03T12:09 | 14753 | 139 | -70.3 | |||
| 2013-09-03T12:09 | 14836 | 137 | -70.6 | 86 | 16.0 | |
| 2013-09-03T23:30 | 9 | 1013 | 27.3 | 24.8 | 120 | 6.0 |
| 2013-09-03T23:30 | 12 | 1012 | 26.8 | 23.1 | ||
| 2013-09-03T23:30 | 154 | 996 | 27.1 | 24.0 | ||
| 2013-09-03T23:31 | 293 | 981 | 26.1 | 23.4 | ||
| 2013-09-03T23:31 | 304 | 980 | 26.0 | 23.5 | ||
| 2013-09-03T23:31 | 310 | 979 | 26.0 | 25.5 | ||
| 2013-09-03T23:31 | 316 | 978 | 25.9 | 23.2 | ||
| 2013-09-03T23:31 | 332 | 977 | 25.8 | 25.8 | ||
| 2013-09-03T23:31 | 338 | 976 | 25.7 | 23.0 | ||
| 2013-09-03T23:31 | 349 | 975 | 25.6 | 25.3 | ||
| 2013-09-03T23:31 | 354 | 974 | 25.6 | 23.1 | 103 | 10.0 |
| 2013-09-03T23:31 | 365 | 973 | 25.5 | 25.5 | ||
| 2013-09-03T23:31 | 398 | 969 | 25.2 | 25.2 | ||
| 2013-09-03T23:31 | 415 | 967 | 25.1 | 23.0 | ||
| 2013-09-03T23:31 | 426 | 966 | 25.0 | 25.0 | ||
| 2013-09-03T23:31 | 476 | 961 | 24.6 | 22.7 | ||
| 2013-09-03T23:32 | 593 | 948 | 23.8 | 21.5 | ||
| 2013-09-03T23:32 | 605 | 947 | 23.7 | 23.7 | ||
| 2013-09-03T23:32 | 666 | 940 | 23.2 | 21.1 | ||
| 2013-09-03T23:32 | 688 | 938 | 111 | 10.0 | ||
| 2013-09-03T23:32 | 711 | 935 | 22.8 | 21.1 | ||
| 2013-09-03T23:32 | 749 | 931 | 22.5 | 22.5 | ||
| 2013-09-03T23:32 | 772 | 929 | 22.4 | 22.4 | ||
| 2013-09-03T23:32 | 839 | 922 | 21.9 | 21.1 | ||
| 2013-09-03T23:32 | 845 | 921 | 21.9 | 20.4 | ||
| 2013-09-03T23:32 | 850 | 920 | 21.8 | 21.8 | ||
| 2013-09-03T23:33 | 861 | 919 | 21.8 | 20.3 | ||
| 2013-09-03T23:33 | 884 | 917 | 21.6 | 21.6 | ||
| 2013-09-03T23:33 | 889 | 916 | 21.6 | 20.1 | ||
| 2013-09-03T23:33 | 917 | 913 | 21.4 | 21.1 | ||
| 2013-09-03T23:33 | 928 | 912 | 113 | 11.0 | ||
| 2013-09-03T23:33 | 938 | 911 | 113 | 11.0 | ||
| 2013-09-03T23:33 | 1013 | 903 | 20.9 | 20.9 | ||
| 2013-09-03T23:33 | 1039 | 901 | 20.7 | 20.7 | ||
| 2013-09-03T23:33 | 1045 | 900 | 20.7 | 19.0 | ||
| 2013-09-03T23:33 | 1050 | 899 | 20.7 | 19.2 | ||
| 2013-09-03T23:33 | 1060 | 898 | 20.6 | 18.9 | ||
| 2013-09-03T23:33 | 1082 | 896 | 20.5 | 19.2 | ||
| 2013-09-03T23:33 | 1092 | 895 | 20.4 | 19.6 | ||
| 2013-09-03T23:34 | 1198 | 884 | 19.9 | 19.6 | ||
| 2013-09-03T23:34 | 1219 | 882 | 19.8 | 19.8 | ||
| 2013-09-03T23:34 | 1236 | 880 | 19.8 | 18.8 | ||
| 2013-09-03T23:34 | 1258 | 878 | 19.7 | 19.4 | ||
| 2013-09-03T23:34 | 1343 | 869 | 105 | 10.0 | ||
| 2013-09-03T23:34 | 1373 | 867 | 19.0 | 19.0 | ||
| 2013-09-03T23:34 | 1378 | 866 | 19.0 | 18.0 | ||
| 2013-09-03T23:34 | 1390 | 865 | 18.9 | 18.9 | ||
| 2013-09-03T23:34 | 1490 | 855 | 18.6 | 17.9 | ||
| 2013-09-03T23:34 | 1507 | 853 | 18.5 | 16.1 | ||
| 2013-09-03T23:35 | 1536 | 850 | 18.3 | 18.3 | ||
| 2013-09-03T23:35 | 1571 | 847 | 18.2 | 16.5 | ||
| 2013-09-03T23:35 | 1588 | 845 | 18.2 | 17.4 | ||
| 2013-09-03T23:35 | 1600 | 844 | 18.1 | 15.9 | ||
| 2013-09-03T23:35 | 1611 | 843 | 18.0 | 16.2 | ||
| 2013-09-03T23:35 | 1646 | 840 | 17.8 | 16.8 | ||
| 2013-09-03T23:35 | 1669 | 837 | 17.6 | 17.6 | ||
| 2013-09-03T23:35 | 1687 | 836 | 17.5 | 17.5 | ||
| 2013-09-03T23:35 | 1692 | 835 | 17.5 | 17.5 | 102 | 10.0 |
| 2013-09-03T23:35 | 1698 | 834 | 17.4 | 15.7 | ||
| 2013-09-03T23:35 | 1727 | 832 | 17.2 | 15.9 | ||
| 2013-09-03T23:35 | 1745 | 830 | 17.1 | 15.8 | ||
| 2013-09-03T23:35 | 1750 | 829 | 17.1 | 17.1 | ||
| 2013-09-03T23:35 | 1784 | 826 | 17.0 | 17.0 | ||
| 2013-09-03T23:35 | 1807 | 824 | 16.9 | 16.9 | ||
| 2013-09-03T23:36 | 2023 | 803 | 103 | 9.0 | ||
| 2013-09-03T23:36 | 2115 | 795 | 15.6 | 15.6 | ||
| 2013-09-03T23:37 | 2345 | 774 | 105 | 10.0 | ||
| 2013-09-03T23:37 | 2417 | 767 | 14.0 | 14.0 | ||
| 2013-09-03T23:38 | 2642 | 747 | 99 | 7.0 | ||
| 2013-09-03T23:39 | 2969 | 718 | 99 | 8.0 | ||
| 2013-09-03T23:39 | 2980 | 717 | 11.1 | 11.1 | ||
| 2013-09-03T23:40 | 3273 | 693 | 9.5 | 9.5 | ||
| 2013-09-03T23:40 | 3313 | 689 | 90 | 8.0 | ||
| 2013-09-03T23:40 | 3476 | 676 | 8.3 | 8.3 | ||
| 2013-09-03T23:41 | 3510 | 673 | 8.1 | 8.1 | ||
| 2013-09-03T23:41 | 3650 | 662 | 89 | 7.0 | ||
| 2013-09-03T23:41 | 3806 | 650 | 6.8 | 6.8 | ||
| 2013-09-03T23:42 | 3963 | 637 | 6.7 | 6.0 | ||
| 2013-09-03T23:42 | 4019 | 633 | 79 | 6.0 | ||
| 2013-09-03T23:42 | 4080 | 628 | 5.8 | 4.9 | ||
| 2013-09-03T23:42 | 4164 | 622 | 5.1 | 3.4 | ||
| 2013-09-03T23:43 | 4272 | 614 | 4.2 | 3.8 | ||
| 2013-09-03T23:43 | 4362 | 607 | 3.6 | 3.0 | ||
| 2013-09-03T23:43 | 4380 | 606 | 75 | 9.0 | ||
| 2013-09-03T23:43 | 4552 | 593 | 2.3 | 2.3 | ||
| 2013-09-03T23:44 | 4671 | 584 | 1.7 | 1.4 | ||
| 2013-09-03T23:44 | 4700 | 582 | 1.7 | 0.2 | ||
| 2013-09-03T23:44 | 4730 | 580 | 1.7 | -0.1 | ||
| 2013-09-03T23:44 | 4761 | 578 | 1.6 | -1.6 | ||
| 2013-09-03T23:44 | 4876 | 570 | 0.8 | -3.1 | ||
| 2013-09-03T23:45 | 4950 | 564 | 0.2 | -3.4 | ||
| 2013-09-03T23:45 | 4968 | 563 | 0.1 | -5.1 | ||
| 2013-09-03T23:45 | 4993 | 561 | 0.0 | -3.9 | ||
| 2013-09-03T23:45 | 5017 | 560 | -0.1 | -5.9 | ||
| 2013-09-03T23:45 | 5035 | 558 | -0.2 | -4.6 | ||
| 2013-09-03T23:45 | 5059 | 557 | -0.3 | -6.1 | ||
| 2013-09-03T23:45 | 5089 | 555 | -0.4 | -6.2 | ||
| 2013-09-03T23:45 | 5101 | 554 | 70 | 8.0 | ||
| 2013-09-03T23:45 | 5137 | 551 | -0.7 | -8.2 | ||
| 2013-09-03T23:45 | 5248 | 544 | -1.4 | -8.2 | ||
| 2013-09-03T23:45 | 5271 | 542 | -1.6 | -7.3 | ||
| 2013-09-03T23:46 | 5295 | 540 | -1.8 | -1.8 | ||
| 2013-09-03T23:46 | 5312 | 539 | -2.0 | -2.7 | ||
| 2013-09-03T23:46 | 5330 | 538 | -2.1 | -2.1 | ||
| 2013-09-03T23:46 | 5455 | 530 | 73 | 8.0 | ||
| 2013-09-03T23:46 | 5473 | 529 | -3.0 | -3.3 | ||
| 2013-09-03T23:46 | 5485 | 528 | -3.1 | -5.4 | ||
| 2013-09-03T23:46 | 5497 | 527 | -3.1 | -13.1 | ||
| 2013-09-03T23:46 | 5516 | 526 | -3.2 | -15.2 | ||
| 2013-09-03T23:46 | 5528 | 525 | -3.3 | -5.6 | ||
| 2013-09-03T23:46 | 5534 | 524 | -3.3 | -4.7 | ||
| 2013-09-03T23:46 | 5558 | 523 | -3.5 | -6.1 | ||
| 2013-09-03T23:46 | 5577 | 522 | -3.6 | -5.9 | ||
| 2013-09-03T23:46 | 5589 | 521 | -3.7 | -14.8 | ||
| 2013-09-03T23:46 | 5595 | 520 | -3.8 | -14.0 | ||
| 2013-09-03T23:46 | 5626 | 518 | -4.0 | -13.9 | ||
| 2013-09-03T23:47 | 5644 | 517 | -4.2 | -15.2 | ||
| 2013-09-03T23:47 | 5656 | 516 | -4.2 | -12.1 | ||
| 2013-09-03T23:47 | 5681 | 515 | -4.4 | -13.8 | ||
| 2013-09-03T23:47 | 5819 | 506 | 54 | 10.0 | ||
| 2013-09-03T23:48 | 5992 | 495 | -6.9 | -18.0 | ||
| 2013-09-03T23:48 | 6026 | 493 | -7.0 | -21.3 | ||
| 2013-09-03T23:48 | 6134 | 486 | -7.2 | -23.9 | ||
| 2013-09-03T23:48 | 6162 | 484 | 59 | 8.0 | ||
| 2013-09-03T23:48 | 6293 | 476 | -8.3 | -27.3 | ||
| 2013-09-03T23:49 | 6342 | 473 | -8.7 | -24.8 | ||
| 2013-09-03T23:49 | 6379 | 471 | -9.0 | -27.9 | ||
| 2013-09-03T23:49 | 6423 | 468 | -9.2 | -25.6 | ||
| 2013-09-03T23:49 | 6493 | 464 | -9.6 | -29.0 | ||
| 2013-09-03T23:49 | 6531 | 461 | 40 | 9.0 | ||
| 2013-09-03T23:50 | 6836 | 443 | -12.0 | -30.4 | ||
| 2013-09-03T23:50 | 6888 | 440 | 33 | 9.0 | ||
| 2013-09-03T23:51 | 7143 | 426 | -14.8 | -32.8 | ||
| 2013-09-03T23:51 | 7231 | 421 | -15.4 | -31.4 | 40 | 10.0 |
| 2013-09-03T23:51 | 7263 | 419 | -15.6 | -36.4 | ||
| 2013-09-03T23:52 | 7562 | 403 | 41 | 10.0 | ||
| 2013-09-03T23:52 | 7671 | 397 | -19.0 | -34.6 | ||
| 2013-09-03T23:53 | 7774 | 391 | -19.4 | -35.8 | ||
| 2013-09-03T23:53 | 7821 | 389 | -19.7 | -31.3 | ||
| 2013-09-03T23:53 | 7862 | 387 | -19.9 | -39.3 | ||
| 2013-09-03T23:53 | 7921 | 384 | 44 | 15.0 | ||
| 2013-09-03T23:54 | 8166 | 371 | -21.9 | -40.4 | ||
| 2013-09-03T23:54 | 8210 | 369 | -22.1 | -35.4 | ||
| 2013-09-03T23:54 | 8248 | 367 | -22.3 | -31.5 | ||
| 2013-09-03T23:54 | 8292 | 365 | 52 | 16.0 | ||
| 2013-09-03T23:54 | 8329 | 363 | -22.8 | -37.1 | ||
| 2013-09-03T23:54 | 8378 | 361 | -23.2 | -39.5 | ||
| 2013-09-03T23:55 | 8475 | 356 | -24.2 | -34.0 | ||
| 2013-09-03T23:55 | 8668 | 346 | 51 | 18.0 | ||
| 2013-09-03T23:55 | 8846 | 338 | -27.6 | -33.3 | ||
| 2013-09-03T23:56 | 8985 | 332 | -28.6 | -35.0 | ||
| 2013-09-03T23:56 | 9054 | 328 | -28.8 | -35.8 | ||
| 2013-09-03T23:56 | 9082 | 327 | 52 | 17.0 | ||
| 2013-09-03T23:57 | 9320 | 316 | -30.6 | -34.9 | ||
| 2013-09-03T23:57 | 9498 | 308 | 55 | 18.0 | ||
| 2013-09-03T23:58 | 9757 | 297 | -33.1 | -36.2 | ||
| 2013-09-03T23:58 | 9868 | 293 | 61 | 23.0 | ||
| 2013-09-03T23:58 | 9910 | 291 | 62 | 23.0 | ||
| 2013-09-03T23:58 | 9931 | 290 | 62 | 23.0 | ||
| 2013-09-03T23:59 | 10160 | 281 | -35.5 | -39.4 | ||
| 2013-09-03T23:59 | 10311 | 275 | 66 | 20.0 | ||
| 2013-09-04T00:00 | 10617 | 263 | -38.8 | -43.1 | ||
| 2013-09-04T00:00 | 10703 | 259 | 70 | 22.0 | ||
| 2013-09-04T00:00 | 10756 | 257 | -40.0 | -44.6 | ||
| 2013-09-04T00:01 | 11115 | 244 | 74 | 20.0 | ||
| 2013-09-04T00:02 | 11520 | 230 | 70 | 20.0 | ||
| 2013-09-04T00:03 | 11894 | 217 | 66 | 21.0 | ||
| 2013-09-04T00:04 | 12250 | 206 | -52.0 | |||
| 2013-09-04T00:04 | 12312 | 204 | 74 | 23.0 | ||
| 2013-09-04T00:05 | 12685 | 192 | 77 | 21.0 | ||
| 2013-09-04T00:06 | 13010 | 183 | -57.7 | |||
| 2013-09-04T00:06 | 13073 | 181 | 77 | 21.0 | ||
| 2013-09-04T00:07 | 13257 | 176 | -59.1 | |||
| 2013-09-04T00:07 | 13424 | 171 | 78 | 27.0 | ||
| 2013-09-04T00:08 | 13777 | 161 | 80 | 26.0 | ||
| 2013-09-04T00:09 | 13982 | 156 | -63.5 | |||
| 2013-09-04T00:09 | 14011 | 155 | -63.7 | |||
| 2013-09-04T00:09 | 14108 | 153 | -64.1 | |||
| 2013-09-04T00:09 | 14216 | 150 | 88 | 27.0 | ||
| 2013-09-04T00:09 | 14253 | 149 | 88 | 27.0 | ||
| 2013-09-04T00:09 | 14309 | 148 | 87 | 27.0 | ||
| 2013-09-04T00:10 | 14513 | 143 | 87 | 25.0 | ||
| 2013-09-04T00:10 | 14549 | 142 | -66.3 | |||
| 2013-09-04T00:11 | 14917 | 134 | 91 | 22.0 | ||
| 2013-09-04T00:12 | 15195 | 128 | -70.7 | |||
| 2013-09-04T00:12 | 15292 | 126 | 99 | 20.0 | ||
| 2013-09-04T00:13 | 15747 | 116 | 94 | 22.0 | ||
| 2013-09-04T00:13 | 15893 | 113 | -73.9 | |||
| 2013-09-04T00:14 | 16149 | 109 | 99 | 20.0 | ||
| 2013-09-04T00:14 | 16295 | 106 | -72.4 | |||
| 2013-09-04T00:15 | 16502 | 102 | 105 | 17.0 | ||
| 2013-09-04T00:15 | 16565 | 101 | -73.4 | |||
| 2013-09-04T00:15 | 16625 | 100 | -73.0 | 102 | 17.0 | |
| 2013-09-04T00:16 | 16987 | 0 | 97 | 16.0 | ||
| 2013-09-04T11:30 | 9 | 1013 | 28.5 | 25.5 | 70 | 6.0 |
| 2013-09-04T11:31 | 339 | 976 | 25.5 | 23.4 | ||
| 2013-09-04T11:31 | 345 | 975 | 82 | 8.0 | ||
| 2013-09-04T11:32 | 516 | 957 | 24.2 | 22.1 | ||
| 2013-09-04T11:32 | 692 | 938 | 97 | 10.0 | ||
| 2013-09-04T11:32 | 715 | 935 | 23.4 | 18.9 | ||
| 2013-09-04T11:32 | 786 | 928 | 99 | 11.0 | ||
| 2013-09-04T11:32 | 792 | 927 | 100 | 11.0 | ||
| 2013-09-04T11:32 | 827 | 923 | 100 | 11.0 | ||
| 2013-09-04T11:33 | 874 | 918 | 22.6 | 18.2 | ||
| 2013-09-04T11:33 | 1046 | 900 | 96 | 9.0 | ||
| 2013-09-04T11:34 | 1371 | 867 | 19.3 | 16.2 | ||
| 2013-09-04T11:34 | 1423 | 862 | 91 | 6.0 | ||
| 2013-09-04T11:35 | 1799 | 825 | 84 | 8.0 | ||
| 2013-09-04T11:35 | 1836 | 821 | 16.6 | 14.6 | ||
| 2013-09-04T11:35 | 1940 | 812 | 16.6 | 13.7 | ||
| 2013-09-04T11:36 | 2148 | 792 | 15.2 | 13.2 | ||
| 2013-09-04T11:36 | 2166 | 790 | 69 | 7.0 | ||
| 2013-09-04T11:36 | 2313 | 777 | 14.9 | 11.1 | ||
| 2013-09-04T11:37 | 2392 | 770 | 15.0 | 8.7 | ||
| 2013-09-04T11:37 | 2484 | 761 | 14.8 | 7.8 | ||
| 2013-09-04T11:37 | 2534 | 757 | 75 | 6.0 | ||
| 2013-09-04T11:37 | 2601 | 751 | 14.1 | 9.3 | ||
| 2013-09-04T11:37 | 2649 | 747 | 14.1 | 7.8 | ||
| 2013-09-04T11:37 | 2703 | 742 | 13.9 | 6.5 | ||
| 2013-09-04T11:38 | 2745 | 738 | 13.8 | 5.9 | ||
| 2013-09-04T11:38 | 2763 | 737 | 13.8 | 5.4 | ||
| 2013-09-04T11:38 | 2895 | 725 | 82 | 7.0 | ||
| 2013-09-04T11:38 | 2913 | 724 | 13.2 | -0.5 | ||
| 2013-09-04T11:38 | 3050 | 712 | 12.3 | -3.1 | ||
| 2013-09-04T11:39 | 3270 | 693 | 90 | 10.0 | ||
| 2013-09-04T11:39 | 3295 | 691 | 10.6 | 0.3 | ||
| 2013-09-04T11:40 | 3477 | 676 | 9.4 | -0.5 | ||
| 2013-09-04T11:40 | 3608 | 666 | 8.5 | -0.3 | ||
| 2013-09-04T11:40 | 3645 | 663 | 97 | 13.0 | ||
| 2013-09-04T11:40 | 3805 | 650 | 101 | 13.0 | ||
| 2013-09-04T11:40 | 3811 | 649 | 101 | 13.0 | ||
| 2013-09-04T11:40 | 3824 | 648 | 6.8 | -1.4 | ||
| 2013-09-04T11:41 | 3892 | 643 | 6.3 | -1.6 | ||
| 2013-09-04T11:41 | 3941 | 639 | 6.1 | -2.3 | ||
| 2013-09-04T11:41 | 4015 | 633 | 98 | 12.0 | ||
| 2013-09-04T11:41 | 4033 | 632 | 5.8 | -5.5 | ||
| 2013-09-04T11:41 | 4045 | 631 | 5.8 | -3.0 | ||
| 2013-09-04T11:41 | 4070 | 629 | 5.7 | -5.6 | ||
| 2013-09-04T11:41 | 4174 | 621 | 5.0 | -7.2 | ||
| 2013-09-04T11:42 | 4215 | 618 | 4.7 | -6.8 | ||
| 2013-09-04T11:42 | 4268 | 614 | 4.4 | -9.7 | ||
| 2013-09-04T11:42 | 4344 | 608 | 4.0 | -11.2 | ||
| 2013-09-04T11:42 | 4374 | 606 | 106 | 11.0 | ||
| 2013-09-04T11:42 | 4386 | 605 | 3.7 | -9.3 | ||
| 2013-09-04T11:42 | 4422 | 602 | 3.4 | -11.4 | ||
| 2013-09-04T11:42 | 4447 | 601 | 3.3 | -10.0 | ||
| 2013-09-04T11:42 | 4495 | 597 | 2.9 | -9.4 | ||
| 2013-09-04T11:42 | 4539 | 594 | 2.5 | -6.9 | ||
| 2013-09-04T11:43 | 4663 | 585 | 1.7 | -10.2 | ||
| 2013-09-04T11:43 | 4741 | 579 | 101 | 12.0 | ||
| 2013-09-04T11:43 | 4881 | 569 | 0.4 | -13.3 | ||
| 2013-09-04T11:43 | 4893 | 568 | 0.4 | -9.9 | ||
| 2013-09-04T11:43 | 4918 | 567 | 0.3 | -14.5 | ||
| 2013-09-04T11:44 | 4930 | 566 | 0.3 | -17.0 | ||
| 2013-09-04T11:44 | 4960 | 564 | 0.2 | -9.8 | ||
| 2013-09-04T11:44 | 4991 | 561 | 0.1 | -12.5 | ||
| 2013-09-04T11:44 | 5100 | 554 | -0.8 | -11.0 | ||
| 2013-09-04T11:44 | 5107 | 553 | 102 | 14.0 | ||
| 2013-09-04T11:44 | 5184 | 548 | -1.5 | -7.2 | ||
| 2013-09-04T11:45 | 5491 | 527 | 105 | 12.0 | ||
| 2013-09-04T11:45 | 5599 | 520 | -4.4 | -11.2 | ||
| 2013-09-04T11:45 | 5651 | 517 | -4.6 | -15.9 | ||
| 2013-09-04T11:46 | 5712 | 513 | -5.2 | -13.3 | ||
| 2013-09-04T11:46 | 5813 | 506 | -6.0 | -14.5 | ||
| 2013-09-04T11:46 | 5847 | 504 | -6.1 | -14.1 | ||
| 2013-09-04T11:46 | 5887 | 501 | 110 | 13.0 | ||
| 2013-09-04T11:46 | 5901 | 500 | -6.2 | -15.9 | ||
| 2013-09-04T11:46 | 5948 | 497 | -6.3 | -16.0 | ||
| 2013-09-04T11:46 | 5968 | 496 | -6.4 | -16.4 | ||
| 2013-09-04T11:46 | 6021 | 493 | -6.7 | -14.7 | ||
| 2013-09-04T11:46 | 6081 | 489 | 108 | 14.0 | ||
| 2013-09-04T11:47 | 6133 | 486 | -7.5 | -17.1 | ||
| 2013-09-04T11:47 | 6263 | 478 | -8.5 | -16.4 | ||
| 2013-09-04T11:47 | 6282 | 477 | 109 | 13.0 | ||
| 2013-09-04T11:47 | 6301 | 475 | -8.8 | -16.7 | ||
| 2013-09-04T11:47 | 6326 | 474 | -9.0 | -17.5 | ||
| 2013-09-04T11:47 | 6350 | 472 | -9.1 | -16.7 | ||
| 2013-09-04T11:47 | 6386 | 470 | -9.4 | -19.1 | ||
| 2013-09-04T11:48 | 6486 | 464 | -10.2 | -18.4 | ||
| 2013-09-04T11:48 | 6607 | 457 | -11.3 | -14.7 | ||
| 2013-09-04T11:48 | 6624 | 456 | -11.4 | -13.3 | ||
| 2013-09-04T11:48 | 6636 | 455 | 111 | 12.0 | ||
| 2013-09-04T11:48 | 6654 | 454 | -11.6 | -12.2 | ||
| 2013-09-04T11:48 | 6689 | 452 | -11.6 | -12.9 | ||
| 2013-09-04T11:48 | 6761 | 448 | -11.7 | -12.5 | ||
| 2013-09-04T11:49 | 6993 | 435 | 114 | 11.0 | ||
| 2013-09-04T11:49 | 7046 | 432 | -12.7 | -15.0 | ||
| 2013-09-04T11:50 | 7357 | 414 | 113 | 11.0 | ||
| 2013-09-04T11:51 | 7656 | 398 | -16.8 | -18.7 | ||
| 2013-09-04T11:51 | 7730 | 394 | 109 | 11.0 | ||
| 2013-09-04T11:52 | 8001 | 380 | -19.4 | -20.6 | ||
| 2013-09-04T11:52 | 8110 | 375 | 107 | 13.0 | ||
| 2013-09-04T11:52 | 8273 | 367 | -21.2 | -23.2 | ||
| 2013-09-04T11:53 | 8372 | 362 | -21.8 | -24.5 | ||
| 2013-09-04T11:53 | 8440 | 358 | -21.9 | -25.7 | ||
| 2013-09-04T11:53 | 8484 | 356 | 113 | 18.0 | ||
| 2013-09-04T11:53 | 8515 | 355 | 110 | 18.0 | ||
| 2013-09-04T11:53 | 8628 | 349 | -22.8 | -26.9 | ||
| 2013-09-04T11:54 | 8751 | 343 | -23.6 | -28.2 | ||
| 2013-09-04T11:54 | 8787 | 342 | -23.8 | -30.3 | ||
| 2013-09-04T11:54 | 8856 | 339 | 109 | 15.0 | ||
| 2013-09-04T11:54 | 9008 | 331 | -25.4 | -30.9 | ||
| 2013-09-04T11:55 | 9118 | 327 | -26.3 | -32.7 | ||
| 2013-09-04T11:55 | 9221 | 322 | -27.0 | -32.3 | ||
| 2013-09-04T11:55 | 9239 | 321 | 107 | 12.0 | ||
| 2013-09-04T11:56 | 9437 | 312 | -28.4 | -35.0 | ||
| 2013-09-04T11:56 | 9509 | 309 | -29.0 | -35.2 | ||
| 2013-09-04T11:56 | 9573 | 307 | -29.4 | -38.3 | ||
| 2013-09-04T11:56 | 9597 | 306 | 113 | 14.0 | ||
| 2013-09-04T11:57 | 9955 | 290 | 114 | 14.0 | ||
| 2013-09-04T11:58 | 10177 | 281 | -34.7 | -40.1 | ||
| 2013-09-04T11:58 | 10302 | 276 | -35.3 | -42.6 | ||
| 2013-09-04T11:58 | 10327 | 275 | 112 | 12.0 | ||
| 2013-09-04T11:58 | 10481 | 269 | -36.6 | -45.6 | ||
| 2013-09-04T11:59 | 10700 | 261 | 116 | 12.0 | ||
| 2013-09-04T11:59 | 10882 | 254 | -40.0 | -47.4 | ||
| 2013-09-04T12:00 | 11083 | 247 | 115 | 12.0 | ||
| 2013-09-04T12:01 | 11497 | 232 | 115 | 15.0 | ||
| 2013-09-04T12:02 | 11886 | 219 | 109 | 15.0 | ||
| 2013-09-04T12:03 | 12284 | 206 | 113 | 14.0 | ||
| 2013-09-04T12:04 | 12603 | 196 | -53.0 | |||
| 2013-09-04T12:04 | 12661 | 194 | 110 | 15.0 | ||
| 2013-09-04T12:05 | 13037 | 183 | 109 | 16.0 | ||
| 2013-09-04T12:06 | 13395 | 173 | 107 | 18.0 | ||
| 2013-09-04T12:07 | 13745 | 164 | -60.9 | |||
| 2013-09-04T12:07 | 13790 | 163 | 107 | 20.0 | ||
| 2013-09-04T12:08 | 14123 | 154 | 115 | 21.0 | ||
| 2013-09-04T12:08 | 14175 | 153 | 117 | 20.0 | ||
| 2013-09-04T12:08 | 14263 | 151 | -64.5 | |||
| 2013-09-04T12:09 | 14588 | 143 | 111 | 18.0 | ||
| 2013-09-04T12:09 | 14746 | 139 | -67.3 | |||
| 2013-09-04T12:10 | 15055 | 132 | 113 | 16.0 | ||
| 2013-09-04T12:11 | 15542 | 122 | 113 | 16.0 | ||
| 2013-09-04T12:11 | 15641 | 120 | -74.4 | |||
| 2013-09-04T12:12 | 15873 | 115 | -75.4 | |||
| 2013-09-04T12:12 | 16004 | 112 | 106 | 21.0 | ||
| 2013-09-04T12:12 | 16173 | 109 | -76.0 | |||
| 2013-09-04T12:12 | 16222 | 108 | 100 | 21.0 | ||
| 2013-09-04T12:13 | 16471 | 104 | 97 | 21.0 | ||
| 2013-09-04T12:14 | 16674 | 100 | -76.2 | 98 | 21.0 | |
| 2013-09-04T12:14 | 16879 | 97 | 100 | 21.0 | ||
| 2013-09-04T12:14 | 17004 | 94 | -77.4 | |||
| 2013-09-04T12:15 | 17320 | 89 | -74.0 | |||
| 2013-09-04T12:15 | 17360 | 89 | 104 | 20.0 | ||
| 2013-09-04T12:15 | 17590 | 85 | -72.1 | |||
| 2013-09-04T12:16 | 17813 | 82 | 104 | 18.0 | ||
| 2013-09-04T12:16 | 17887 | 81 | -71.3 | |||
| 2013-09-04T12:17 | 18202 | 77 | 109 | 14.0 | ||
| 2013-09-04T12:18 | 18450 | 74 | -71.0 | |||
| 2013-09-04T12:18 | 18592 | 72 | 93 | 17.0 | ||
| 2013-09-04T12:19 | 18972 | 68 | 104 | 19.0 | ||
| 2013-09-04T12:20 | 19161 | 65 | -70.0 | |||
| 2013-09-04T12:20 | 19335 | 64 | 96 | 16.0 | ||
| 2013-09-04T12:20 | 19456 | 62 | -66.5 | |||
| 2013-09-04T12:21 | 19699 | 60 | 80 | 15.0 | ||
| 2013-09-04T12:22 | 20074 | 56 | 64 | 16.0 | ||
| 2013-09-04T12:23 | 20461 | 53 | 60 | 20.0 | ||
| 2013-09-04T12:24 | 20769 | 50 | -63.7 | |||
| 2013-09-04T12:24 | 20826 | 50 | 70 | 21.0 | ||
| 2013-09-04T12:25 | 21085 | 48 | 73 | 23.0 | ||
| 2013-09-04T12:25 | 21098 | 48 | 73 | 23.0 | ||
| 2013-09-04T12:25 | 21117 | 48 | 72 | 23.0 | ||
| 2013-09-04T12:25 | 21214 | 47 | 75 | 23.0 | ||
| 2013-09-04T12:25 | 21380 | 46 | -59.5 | |||
| 2013-09-04T12:26 | 21611 | 44 | 99 | 19.0 | ||
| 2013-09-04T12:26 | 21796 | 43 | -57.4 | |||
| 2013-09-04T12:27 | 22045 | 41 | 116 | 14.0 | ||
| 2013-09-04T12:28 | 22502 | 38 | 104 | 13.0 | ||
| 2013-09-04T12:28 | 22688 | 37 | -59.5 | |||
| 2013-09-04T12:29 | 22961 | 35 | 99 | 15.0 | ||
| 2013-09-04T12:30 | 23419 | 33 | 85 | 18.0 | ||
| 2013-09-04T12:30 | 23434 | 33 | -59.2 | |||
| 2013-09-04T12:31 | 23879 | 31 | 74 | 16.0 | ||
| 2013-09-04T12:32 | 24274 | 29 | -57.6 | |||
| 2013-09-04T12:32 | 24343 | 28 | 76 | 19.0 | ||
| 2013-09-04T12:33 | 24778 | 27 | 89 | 21.0 | ||
| 2013-09-04T12:33 | 24898 | 26 | -52.2 | |||
| 2013-09-04T12:34 | 25185 | 25 | 105 | 21.0 | ||
| 2013-09-04T12:34 | 25363 | 24 | -52.1 | |||
| 2013-09-04T12:35 | 25491 | 24 | -52.1 | 103 | 20.0 | |
| 2013-09-04T23:30 | 9 | 1014 | 30.0 | 25.1 | 80 | 6.0 |
| 2013-09-04T23:30 | 31 | 1011 | 28.4 | 21.9 | ||
| 2013-09-04T23:31 | 328 | 978 | 87 | 7.0 | ||
| 2013-09-04T23:32 | 522 | 956 | 24.2 | 21.5 | ||
| 2013-09-04T23:32 | 676 | 940 | 88 | 8.0 | ||
| 2013-09-04T23:32 | 793 | 927 | 22.9 | 18.2 | ||
| 2013-09-04T23:33 | 928 | 913 | 22.2 | 17.6 | ||
| 2013-09-04T23:33 | 1026 | 903 | 87 | 8.0 | ||
| 2013-09-04T23:34 | 1200 | 885 | 20.1 | 16.7 | ||
| 2013-09-04T23:34 | 1388 | 866 | 86 | 9.0 | ||
| 2013-09-04T23:34 | 1450 | 860 | 18.8 | 15.7 | ||
| 2013-09-04T23:34 | 1481 | 857 | 18.7 | 16.1 | ||
| 2013-09-04T23:34 | 1532 | 852 | 18.8 | 12.5 | ||
| 2013-09-04T23:34 | 1550 | 850 | 18.7 | 14.6 | ||
| 2013-09-04T23:35 | 1649 | 840 | 17.9 | 14.0 | ||
| 2013-09-04T23:35 | 1761 | 829 | 88 | 9.0 | ||
| 2013-09-04T23:35 | 1856 | 820 | 16.6 | 13.7 | ||
| 2013-09-04T23:35 | 1881 | 817 | 89 | 9.0 | ||
| 2013-09-04T23:35 | 1894 | 816 | 16.5 | 9.9 | ||
| 2013-09-04T23:35 | 1925 | 813 | 16.2 | 12.7 | ||
| 2013-09-04T23:36 | 2009 | 805 | 15.7 | 13.9 | ||
| 2013-09-04T23:36 | 2045 | 802 | 15.8 | 12.5 | ||
| 2013-09-04T23:36 | 2068 | 800 | 15.8 | 12.9 | ||
| 2013-09-04T23:36 | 2092 | 797 | 15.7 | 9.6 | ||
| 2013-09-04T23:36 | 2115 | 795 | 15.7 | 11.3 | ||
| 2013-09-04T23:36 | 2127 | 794 | 15.6 | 9.3 | 93 | 8.0 |
| 2013-09-04T23:36 | 2162 | 791 | 15.3 | 10.3 | ||
| 2013-09-04T23:36 | 2185 | 789 | 15.1 | 11.7 | ||
| 2013-09-04T23:36 | 2203 | 787 | 15.0 | 10.0 | ||
| 2013-09-04T23:36 | 2226 | 785 | 14.8 | 12.8 | ||
| 2013-09-04T23:36 | 2266 | 781 | 14.5 | 12.7 | ||
| 2013-09-04T23:37 | 2400 | 769 | 14.0 | 11.2 | ||
| 2013-09-04T23:37 | 2477 | 762 | 83 | 8.0 | ||
| 2013-09-04T23:37 | 2513 | 759 | 13.6 | 10.0 | ||
| 2013-09-04T23:37 | 2609 | 750 | 13.4 | 6.0 | ||
| 2013-09-04T23:37 | 2639 | 748 | 13.3 | 4.7 | ||
| 2013-09-04T23:38 | 2699 | 742 | 12.9 | 6.5 | ||
| 2013-09-04T23:38 | 2830 | 731 | 12.1 | 3.3 | ||
| 2013-09-04T23:38 | 2902 | 725 | 11.9 | 4.1 | ||
| 2013-09-04T23:38 | 2964 | 719 | 11.7 | 2.2 | ||
| 2013-09-04T23:39 | 3074 | 710 | 10.9 | 5.0 | ||
| 2013-09-04T23:39 | 3148 | 704 | 10.3 | 5.1 | ||
| 2013-09-04T23:39 | 3203 | 699 | 94 | 7.0 | ||
| 2013-09-04T23:39 | 3269 | 694 | 9.8 | 3.1 | ||
| 2013-09-04T23:39 | 3292 | 692 | 9.7 | 1.6 | ||
| 2013-09-04T23:40 | 3385 | 684 | 9.2 | 2.5 | ||
| 2013-09-04T23:40 | 3461 | 678 | 8.7 | 0.7 | ||
| 2013-09-04T23:40 | 3473 | 677 | 8.6 | -0.7 | ||
| 2013-09-04T23:40 | 3491 | 675 | 8.5 | 0.7 | ||
| 2013-09-04T23:40 | 3526 | 673 | 8.2 | 0.4 | ||
| 2013-09-04T23:40 | 3555 | 670 | 8.0 | 2.0 | 102 | 9.0 |
| 2013-09-04T23:40 | 3579 | 668 | 7.8 | 1.4 | ||
| 2013-09-04T23:40 | 3695 | 659 | 7.3 | -0.2 | ||
| 2013-09-04T23:41 | 3807 | 650 | 99 | 11.0 | ||
| 2013-09-04T23:41 | 3863 | 645 | 99 | 11.0 | ||
| 2013-09-04T23:41 | 3882 | 644 | 99 | 11.0 | ||
| 2013-09-04T23:41 | 3932 | 640 | 99 | 11.0 | ||
| 2013-09-04T23:41 | 3957 | 638 | 5.6 | -3.0 | ||
| 2013-09-04T23:41 | 3975 | 637 | 99 | 11.0 | ||
| 2013-09-04T23:41 | 3994 | 635 | 5.5 | -3.6 | ||
| 2013-09-04T23:41 | 4025 | 633 | 5.5 | -3.1 | ||
| 2013-09-04T23:41 | 4043 | 631 | 5.4 | -4.5 | ||
| 2013-09-04T23:41 | 4067 | 629 | 5.3 | -2.8 | ||
| 2013-09-04T23:42 | 4116 | 626 | 5.0 | -4.8 | ||
| 2013-09-04T23:42 | 4134 | 624 | 4.9 | -7.9 | ||
| 2013-09-04T23:42 | 4163 | 622 | 4.8 | -6.7 | ||
| 2013-09-04T23:42 | 4175 | 621 | 4.7 | -5.4 | ||
| 2013-09-04T23:42 | 4198 | 619 | 4.5 | -7.9 | ||
| 2013-09-04T23:42 | 4256 | 615 | 4.1 | -5.4 | ||
| 2013-09-04T23:42 | 4285 | 613 | 91 | 10.0 | ||
| 2013-09-04T23:42 | 4350 | 608 | 3.3 | -6.7 | ||
| 2013-09-04T23:42 | 4368 | 607 | 3.4 | -3.2 | ||
| 2013-09-04T23:42 | 4380 | 606 | 3.4 | -8.9 | ||
| 2013-09-04T23:42 | 4386 | 605 | 3.4 | -16.3 | ||
| 2013-09-04T23:42 | 4422 | 603 | 3.5 | -16.2 | ||
| 2013-09-04T23:43 | 4499 | 597 | 3.0 | -13.8 | ||
| 2013-09-04T23:43 | 4591 | 590 | 2.2 | -12.1 | ||
| 2013-09-04T23:43 | 4603 | 589 | 2.1 | -4.6 | ||
| 2013-09-04T23:43 | 4645 | 586 | 101 | 10.0 | ||
| 2013-09-04T23:43 | 4663 | 585 | 1.6 | -5.6 | ||
| 2013-09-04T23:43 | 4674 | 584 | 1.5 | -5.4 | ||
| 2013-09-04T23:43 | 4686 | 583 | 1.4 | -11.7 | ||
| 2013-09-04T23:43 | 4747 | 579 | 1.2 | -12.9 | ||
| 2013-09-04T23:43 | 4771 | 577 | 1.1 | -11.0 | ||
| 2013-09-04T23:44 | 4989 | 562 | -0.1 | -13.7 | ||
| 2013-09-04T23:44 | 5014 | 560 | 106 | 8.0 | ||
| 2013-09-04T23:44 | 5151 | 550 | -0.9 | -18.5 | ||
| 2013-09-04T23:45 | 5323 | 539 | -1.8 | -15.3 | ||
| 2013-09-04T23:45 | 5374 | 535 | -2.1 | -19.1 | ||
| 2013-09-04T23:45 | 5393 | 534 | 112 | 11.0 | ||
| 2013-09-04T23:45 | 5419 | 532 | -2.4 | -19.3 | ||
| 2013-09-04T23:45 | 5487 | 528 | -2.6 | -24.3 | ||
| 2013-09-04T23:45 | 5517 | 526 | -2.7 | -24.4 | ||
| 2013-09-04T23:46 | 5644 | 517 | -3.4 | -21.6 | ||
| 2013-09-04T23:46 | 5693 | 514 | -3.6 | -20.4 | ||
| 2013-09-04T23:46 | 5748 | 511 | -4.0 | -17.6 | ||
| 2013-09-04T23:46 | 5760 | 510 | 101 | 11.0 | ||
| 2013-09-04T23:46 | 5797 | 507 | -4.4 | -14.0 | ||
| 2013-09-04T23:46 | 5810 | 506 | -4.5 | -14.6 | ||
| 2013-09-04T23:46 | 5841 | 504 | -4.7 | -13.1 | ||
| 2013-09-04T23:46 | 5867 | 503 | -4.7 | -14.8 | ||
| 2013-09-04T23:46 | 5923 | 499 | -5.2 | -19.7 | ||
| 2013-09-04T23:47 | 6018 | 493 | -6.0 | -17.7 | ||
| 2013-09-04T23:47 | 6139 | 486 | 99 | 12.0 | ||
| 2013-09-04T23:47 | 6164 | 484 | -7.3 | -15.3 | ||
| 2013-09-04T23:47 | 6240 | 479 | -7.6 | -16.2 | ||
| 2013-09-04T23:48 | 6332 | 474 | 93 | 13.0 | ||
| 2013-09-04T23:48 | 6338 | 473 | 93 | 13.0 | ||
| 2013-09-04T23:48 | 6357 | 472 | -8.3 | -18.7 | ||
| 2013-09-04T23:48 | 6507 | 463 | 96 | 12.0 | ||
| 2013-09-04T23:48 | 6525 | 462 | -9.5 | -19.5 | ||
| 2013-09-04T23:48 | 6578 | 459 | -9.7 | -18.4 | ||
| 2013-09-04T23:48 | 6663 | 454 | -10.2 | -19.1 | ||
| 2013-09-04T23:49 | 6700 | 452 | -10.5 | -16.2 | ||
| 2013-09-04T23:49 | 6762 | 448 | -11.0 | -19.2 | ||
| 2013-09-04T23:49 | 6873 | 442 | 105 | 10.0 | ||
| 2013-09-04T23:49 | 7054 | 431 | -13.3 | -17.4 | ||
| 2013-09-04T23:50 | 7086 | 430 | -13.4 | -19.5 | ||
| 2013-09-04T23:50 | 7167 | 425 | -13.6 | -18.8 | ||
| 2013-09-04T23:50 | 7249 | 421 | 120 | 10.0 | ||
| 2013-09-04T23:50 | 7286 | 418 | -14.4 | -20.5 | ||
| 2013-09-04T23:51 | 7442 | 410 | -15.5 | -22.7 | ||
| 2013-09-04T23:51 | 7622 | 400 | 123 | 10.0 | ||
| 2013-09-04T23:51 | 7685 | 397 | -17.5 | -24.4 | ||
| 2013-09-04T23:52 | 7869 | 387 | -18.6 | -26.0 | ||
| 2013-09-04T23:52 | 8007 | 380 | 107 | 8.0 | ||
| 2013-09-04T23:52 | 8079 | 376 | -20.2 | -27.3 | ||
| 2013-09-04T23:52 | 8126 | 374 | -20.5 | -28.2 | ||
| 2013-09-04T23:53 | 8227 | 369 | -21.2 | -28.9 | ||
| 2013-09-04T23:53 | 8321 | 364 | -21.7 | -27.9 | ||
| 2013-09-04T23:53 | 8410 | 360 | 99 | 8.0 | ||
| 2013-09-04T23:53 | 8486 | 356 | -23.1 | -29.3 | ||
| 2013-09-04T23:53 | 8603 | 350 | -23.9 | -31.4 | ||
| 2013-09-04T23:54 | 8634 | 349 | -24.1 | -32.9 | ||
| 2013-09-04T23:54 | 8672 | 347 | -24.3 | -30.4 | ||
| 2013-09-04T23:54 | 8751 | 343 | -24.9 | -31.9 | ||
| 2013-09-04T23:54 | 8812 | 341 | -25.4 | -33.2 | 111 | 8.0 |
| 2013-09-04T23:54 | 8918 | 336 | -26.3 | -31.9 | ||
| 2013-09-04T23:54 | 8971 | 333 | -26.7 | -37.6 | ||
| 2013-09-04T23:55 | 9198 | 323 | 115 | 7.0 | ||
| 2013-09-04T23:55 | 9227 | 321 | -29.0 | -40.8 | ||
| 2013-09-04T23:55 | 9305 | 318 | -29.7 | -37.9 | ||
| 2013-09-04T23:55 | 9391 | 314 | -30.2 | -38.5 | ||
| 2013-09-04T23:56 | 9441 | 312 | -30.5 | -37.4 | ||
| 2013-09-04T23:56 | 9624 | 304 | 126 | 9.0 | ||
| 2013-09-04T23:56 | 9645 | 303 | -31.8 | -39.8 | ||
| 2013-09-04T23:57 | 9903 | 292 | -33.9 | -42.0 | ||
| 2013-09-04T23:57 | 9980 | 289 | -34.6 | -44.7 | ||
| 2013-09-04T23:57 | 10050 | 286 | 122 | 10.0 | ||
| 2013-09-04T23:58 | 10276 | 277 | -36.9 | -49.8 | ||
| 2013-09-04T23:58 | 10481 | 269 | 109 | 12.0 | ||
| 2013-09-04T23:58 | 10546 | 266 | -38.8 | -48.0 | ||
| 2013-09-04T23:59 | 10700 | 260 | -40.0 | -49.9 | ||
| 2013-09-04T23:59 | 10911 | 252 | 103 | 14.0 | ||
| 2013-09-04T23:59 | 10974 | 250 | 105 | 15.0 | ||
| 2013-09-04T23:59 | 10994 | 249 | 105 | 15.0 | ||
| 2013-09-04T23:59 | 11022 | 248 | 105 | 15.0 | ||
| 2013-09-04T23:59 | 11049 | 247 | 105 | 15.0 | ||
| 2013-09-04T23:59 | 11097 | 246 | 107 | 15.0 | ||
| 2013-09-05T00:00 | 11118 | 245 | 106 | 15.0 | ||
| 2013-09-05T00:00 | 11139 | 244 | 106 | 15.0 | ||
| 2013-09-05T00:00 | 11320 | 238 | 112 | 15.0 | ||
| 2013-09-05T00:01 | 11567 | 229 | -46.5 | |||
| 2013-09-05T00:01 | 11722 | 224 | 112 | 12.0 | ||
| 2013-09-05T00:02 | 12128 | 210 | 101 | 9.0 | ||
| 2013-09-05T00:03 | 12525 | 198 | 102 | 11.0 | ||
| 2013-09-05T00:03 | 12603 | 195 | -53.7 | |||
| 2013-09-05T00:04 | 12892 | 187 | 98 | 10.0 | ||
| 2013-09-05T00:05 | 13278 | 176 | 98 | 8.0 | ||
| 2013-09-05T00:06 | 13555 | 168 | -60.9 | |||
| 2013-09-05T00:06 | 13659 | 165 | 118 | 10.0 | ||
| 2013-09-05T00:07 | 13935 | 158 | -62.7 | |||
| 2013-09-05T00:07 | 14064 | 155 | 96 | 11.0 | ||
| 2013-09-05T00:08 | 14491 | 144 | 88 | 12.0 | ||
| 2013-09-05T00:08 | 14638 | 141 | -67.4 | |||
| 2013-09-05T00:09 | 14890 | 135 | 99 | 13.0 | ||
| 2013-09-05T00:10 | 15331 | 125 | 93 | 14.0 | ||
| 2013-09-05T00:11 | 15832 | 115 | 95 | 13.0 | ||
| 2013-09-05T00:11 | 15904 | 114 | -74.8 | |||
| 2013-09-05T00:12 | 16179 | 108 | -76.1 | |||
| 2013-09-05T00:12 | 16304 | 106 | 89 | 15.0 | ||
| 2013-09-05T00:13 | 16637 | 100 | -76.9 | 77 | 15.0 | |
| 2013-09-05T00:13 | 16784 | 98 | 81 | 17.0 | ||
| 2013-09-05T00:14 | 17015 | 94 | 95 | 19.0 | ||
| 2013-09-05T00:14 | 17023 | 94 | 95 | 19.0 | ||
| 2013-09-05T00:14 | 17030 | 93 | 96 | 19.0 | ||
| 2013-09-05T00:14 | 17037 | 93 | 96 | 19.0 | ||
| 2013-09-05T00:14 | 17059 | 93 | 97 | 19.0 | ||
| 2013-09-05T00:14 | 17067 | 93 | 97 | 19.0 | ||
| 2013-09-05T00:14 | 17074 | 93 | 98 | 19.0 | ||
| 2013-09-05T00:14 | 17081 | 93 | 98 | 19.0 | ||
| 2013-09-05T00:14 | 17103 | 92 | -76.2 | |||
| 2013-09-05T00:14 | 17238 | 90 | 99 | 18.0 | ||
| 2013-09-05T00:14 | 17456 | 87 | -74.6 | |||
| 2013-09-05T00:15 | 17688 | 83 | 89 | 15.0 | ||
| 2013-09-05T00:15 | 17708 | 83 | -73.7 | |||
| 2013-09-05T00:16 | 18062 | 78 | 81 | 17.0 | ||
| 2013-09-05T00:16 | 18118 | 78 | -72.2 | |||
| 2013-09-05T00:17 | 18433 | 73 | 88 | 18.0 | ||
| 2013-09-05T00:17 | 18470 | 73 | -70.7 | |||
| 2013-09-05T00:18 | 18638 | 71 | -68.6 | |||
| 2013-09-05T00:18 | 18805 | 69 | 87 | 17.0 | ||
| 2013-09-05T00:19 | 19076 | 66 | -66.8 | |||
| 2013-09-05T00:19 | 19194 | 65 | 95 | 15.0 | ||
| 2013-09-05T00:20 | 19496 | 62 | -67.5 | |||
| 2013-09-05T00:20 | 19613 | 60 | 92 | 13.0 | ||
| 2013-09-05T00:21 | 20044 | 56 | 81 | 16.0 | ||
| 2013-09-05T00:21 | 20223 | 55 | -68.1 | |||
| 2013-09-05T00:22 | 20458 | 52 | 86 | 17.0 | ||
| 2013-09-05T00:22 | 20556 | 52 | -67.7 | |||
| 2013-09-05T00:23 | 20850 | 49 | 97 | 16.0 | ||
| 2013-09-05T00:23 | 20876 | 49 | -65.9 | |||
| 2013-09-05T00:24 | 21235 | 46 | 99 | 17.0 | ||
| 2013-09-05T00:25 | 21552 | 44 | -62.3 | |||
| 2013-09-05T00:25 | 21641 | 43 | 94 | 19.0 | ||
| 2013-09-05T00:26 | 22071 | 40 | 101 | 21.0 | ||
| 2013-09-05T00:26 | 22179 | 40 | 103 | 21.0 | ||
| 2013-09-05T00:26 | 22193 | 39 | 104 | 21.0 | ||
| 2013-09-05T00:27 | 22462 | 38 | -61.4 | |||
| 2013-09-05T00:27 | 22496 | 38 | 99 | 19.0 | ||
| 2013-09-05T00:28 | 22893 | 35 | 87 | 16.0 | ||
| 2013-09-05T00:29 | 23182 | 34 | -57.0 | |||
| 2013-09-05T00:29 | 23321 | 33 | 86 | 13.0 | ||
| 2013-09-05T00:30 | 23762 | 31 | 66 | 17.0 | ||
| 2013-09-05T00:31 | 24161 | 29 | 76 | 21.0 | ||
| 2013-09-05T00:31 | 24186 | 29 | -56.8 | |||
| 2013-09-05T00:32 | 24464 | 28 | 88 | 23.0 | ||
| 2013-09-05T00:32 | 24496 | 27 | 88 | 23.0 | ||
| 2013-09-05T00:32 | 24535 | 27 | 89 | 23.0 | ||
| 2013-09-05T00:33 | 24778 | 26 | -53.8 | |||
| 2013-09-05T00:33 | 24964 | 25 | 101 | 19.0 | ||
| 2013-09-05T00:34 | 25436 | 24 | 100 | 16.0 | ||
| 2013-09-05T00:34 | 25557 | 23 | -54.2 | |||
| 2013-09-05T00:35 | 25911 | 22 | 92 | 21.0 | ||
| 2013-09-05T00:36 | 26364 | 20 | 95 | 22.0 | ||
| 2013-09-05T00:37 | 26808 | 19 | 100 | 21.0 | ||
| 2013-09-05T00:38 | 27125 | 18 | -51.1 | |||
| 2013-09-05T00:38 | 27165 | 18 | 91 | 25.0 | ||
| 2013-09-05T00:38 | 27219 | 18 | 92 | 25.0 | ||
| 2013-09-05T00:39 | 27644 | 17 | 93 | 24.0 | ||
| 2013-09-05T00:40 | 28113 | 16 | -46.2 | |||
| 2013-09-05T00:41 | 28629 | 15 | 92 | 23.0 | ||
| 2013-09-05T00:42 | 29112 | 14 | 94 | 24.0 | ||
| 2013-09-05T00:42 | 29120 | 13 | -44.3 | |||
| 2013-09-05T00:42 | 29200 | 13 | -44.1 | 92 | 27.0 | |
| 2013-09-05T11:30 | 9 | 1014 | 28.7 | 25.7 | 80 | 5.0 |
| 2013-09-05T11:31 | 190 | 993 | 26.9 | 24.0 | ||
| 2013-09-05T11:31 | 313 | 979 | 91 | 7.0 | ||
| 2013-09-05T11:31 | 323 | 978 | 91 | 7.0 | ||
| 2013-09-05T11:31 | 333 | 977 | 91 | 7.0 | ||
| 2013-09-05T11:31 | 359 | 974 | 92 | 7.0 | ||
| 2013-09-05T11:31 | 379 | 972 | 94 | 7.0 | ||
| 2013-09-05T11:31 | 389 | 971 | 25.1 | 23.2 | 93 | 7.0 |
| 2013-09-05T11:31 | 410 | 969 | 93 | 7.0 | ||
| 2013-09-05T11:31 | 414 | 968 | 25.2 | 22.3 | ||
| 2013-09-05T11:31 | 424 | 967 | 94 | 7.0 | ||
| 2013-09-05T11:31 | 439 | 966 | 94 | 7.0 | ||
| 2013-09-05T11:32 | 600 | 948 | 92 | 6.0 | ||
| 2013-09-05T11:33 | 955 | 910 | 97 | 5.0 | ||
| 2013-09-05T11:33 | 1093 | 896 | 20.5 | 17.9 | ||
| 2013-09-05T11:34 | 1379 | 867 | 89 | 4.0 | ||
| 2013-09-05T11:34 | 1391 | 866 | 19.0 | 17.3 | ||
| 2013-09-05T11:35 | 1595 | 845 | 18.0 | 15.4 | ||
| 2013-09-05T11:35 | 1651 | 840 | 17.9 | 14.2 | ||
| 2013-09-05T11:35 | 1676 | 837 | 17.8 | 13.9 | ||
| 2013-09-05T11:35 | 1701 | 835 | 17.9 | 13.0 | ||
| 2013-09-05T11:35 | 1733 | 832 | 17.9 | 12.8 | ||
| 2013-09-05T11:35 | 1745 | 831 | 104 | 4.0 | ||
| 2013-09-05T11:35 | 1874 | 818 | 17.0 | 12.5 | ||
| 2013-09-05T11:35 | 1893 | 816 | 16.8 | 14.6 | ||
| 2013-09-05T11:35 | 1906 | 815 | 16.7 | 14.5 | ||
| 2013-09-05T11:35 | 1926 | 813 | 16.7 | 14.0 | ||
| 2013-09-05T11:36 | 1945 | 811 | 16.7 | 12.3 | ||
| 2013-09-05T11:36 | 2090 | 798 | 15.8 | 11.8 | ||
| 2013-09-05T11:36 | 2119 | 795 | 108 | 5.0 | ||
| 2013-09-05T11:36 | 2223 | 785 | 14.8 | 13.0 | ||
| 2013-09-05T11:36 | 2253 | 783 | 14.8 | 12.5 | ||
| 2013-09-05T11:36 | 2290 | 779 | 14.7 | 12.0 | ||
| 2013-09-05T11:37 | 2382 | 771 | 14.4 | 10.4 | ||
| 2013-09-05T11:37 | 2400 | 769 | 14.4 | 7.5 | ||
| 2013-09-05T11:37 | 2413 | 768 | 14.5 | 8.0 | ||
| 2013-09-05T11:37 | 2425 | 767 | 14.5 | 11.6 | ||
| 2013-09-05T11:37 | 2443 | 765 | 14.5 | 9.7 | ||
| 2013-09-05T11:37 | 2456 | 764 | 14.5 | 9.7 | ||
| 2013-09-05T11:37 | 2480 | 762 | 14.3 | 6.2 | 86 | 6.0 |
| 2013-09-05T11:37 | 2505 | 760 | 14.1 | 8.1 | ||
| 2013-09-05T11:37 | 2517 | 758 | 14.0 | 10.0 | ||
| 2013-09-05T11:37 | 2548 | 756 | 13.8 | 11.7 | ||
| 2013-09-05T11:37 | 2620 | 749 | 13.2 | 11.6 | ||
| 2013-09-05T11:38 | 2718 | 741 | 12.7 | 11.1 | ||
| 2013-09-05T11:38 | 2741 | 739 | 12.6 | 9.8 | ||
| 2013-09-05T11:38 | 2764 | 737 | 12.7 | 10.2 | ||
| 2013-09-05T11:38 | 2798 | 734 | 12.6 | 8.3 | ||
| 2013-09-05T11:38 | 2832 | 731 | 75 | 6.0 | ||
| 2013-09-05T11:38 | 2882 | 726 | 12.0 | 9.2 | ||
| 2013-09-05T11:38 | 2927 | 722 | 11.7 | 9.3 | ||
| 2013-09-05T11:39 | 3100 | 708 | 11.0 | 6.7 | ||
| 2013-09-05T11:39 | 3167 | 702 | 78 | 7.0 | ||
| 2013-09-05T11:39 | 3255 | 695 | 10.3 | 4.4 | ||
| 2013-09-05T11:39 | 3326 | 689 | 10.1 | 2.0 | ||
| 2013-09-05T11:39 | 3338 | 688 | 74 | 7.0 | ||
| 2013-09-05T11:39 | 3344 | 687 | 75 | 7.0 | ||
| 2013-09-05T11:40 | 3363 | 686 | 10.0 | 1.1 | ||
| 2013-09-05T11:40 | 3376 | 685 | 9.9 | 3.0 | ||
| 2013-09-05T11:40 | 3414 | 681 | 9.7 | -0.2 | ||
| 2013-09-05T11:40 | 3460 | 678 | 9.4 | 1.8 | ||
| 2013-09-05T11:40 | 3493 | 675 | 9.1 | 0.5 | ||
| 2013-09-05T11:40 | 3505 | 674 | 9.1 | 3.1 | ||
| 2013-09-05T11:40 | 3538 | 671 | 77 | 6.0 | ||
| 2013-09-05T11:40 | 3602 | 666 | 8.6 | -1.8 | ||
| 2013-09-05T11:41 | 3737 | 655 | 7.8 | -3.4 | ||
| 2013-09-05T11:41 | 3766 | 653 | 7.5 | -1.7 | ||
| 2013-09-05T11:41 | 3896 | 643 | 81 | 6.0 | ||
| 2013-09-05T11:41 | 3913 | 641 | 6.5 | -3.2 | ||
| 2013-09-05T11:41 | 3995 | 635 | 6.0 | -3.4 | ||
| 2013-09-05T11:41 | 4031 | 632 | 5.8 | -5.2 | ||
| 2013-09-05T11:42 | 4106 | 626 | 5.1 | -2.5 | ||
| 2013-09-05T11:42 | 4139 | 624 | 4.9 | -2.9 | ||
| 2013-09-05T11:42 | 4160 | 622 | 4.7 | -2.2 | ||
| 2013-09-05T11:42 | 4213 | 618 | 4.3 | -2.8 | ||
| 2013-09-05T11:42 | 4234 | 617 | 80 | 7.0 | ||
| 2013-09-05T11:42 | 4250 | 615 | 4.0 | -6.0 | ||
| 2013-09-05T11:42 | 4271 | 614 | 3.8 | -1.2 | ||
| 2013-09-05T11:42 | 4309 | 611 | 3.5 | 0.5 | ||
| 2013-09-05T11:42 | 4384 | 605 | 2.9 | 0.3 | ||
| 2013-09-05T11:43 | 4402 | 604 | 2.8 | -1.6 | ||
| 2013-09-05T11:43 | 4444 | 601 | 2.7 | -1.3 | ||
| 2013-09-05T11:43 | 4494 | 597 | 2.6 | -1.8 | ||
| 2013-09-05T11:43 | 4540 | 594 | 2.6 | -2.1 | ||
| 2013-09-05T11:43 | 4572 | 592 | 2.7 | -7.2 | ||
| 2013-09-05T11:43 | 4579 | 591 | 2.7 | -4.3 | ||
| 2013-09-05T11:43 | 4630 | 587 | 2.7 | -6.7 | ||
| 2013-09-05T11:43 | 4643 | 586 | 2.7 | -7.0 | ||
| 2013-09-05T11:43 | 4662 | 585 | 2.6 | -9.3 | ||
| 2013-09-05T11:43 | 4706 | 582 | 2.5 | -12.5 | ||
| 2013-09-05T11:43 | 4732 | 580 | 2.3 | -9.6 | ||
| 2013-09-05T11:43 | 4763 | 578 | 2.2 | -9.7 | ||
| 2013-09-05T11:44 | 4776 | 577 | 2.2 | -7.4 | ||
| 2013-09-05T11:44 | 4807 | 575 | 2.2 | -14.0 | ||
| 2013-09-05T11:44 | 4825 | 573 | 2.2 | -10.3 | ||
| 2013-09-05T11:44 | 4911 | 567 | 1.7 | -11.4 | ||
| 2013-09-05T11:44 | 4947 | 565 | 1.6 | -17.3 | ||
| 2013-09-05T11:44 | 4959 | 564 | 1.6 | -16.3 | 91 | 9.0 |
| 2013-09-05T11:44 | 5014 | 560 | 1.3 | -17.1 | ||
| 2013-09-05T11:45 | 5210 | 546 | 80 | 10.0 | ||
| 2013-09-05T11:45 | 5297 | 540 | -0.7 | -19.3 | ||
| 2013-09-05T11:45 | 5328 | 538 | 77 | 9.0 | ||
| 2013-09-05T11:45 | 5404 | 533 | -1.6 | -19.6 | ||
| 2013-09-05T11:45 | 5481 | 528 | -2.0 | -20.9 | ||
| 2013-09-05T11:46 | 5575 | 522 | -2.6 | -22.5 | ||
| 2013-09-05T11:46 | 5643 | 517 | -3.1 | -20.9 | ||
| 2013-09-05T11:46 | 5705 | 513 | 73 | 8.0 | ||
| 2013-09-05T11:46 | 5730 | 512 | -3.7 | -23.4 | ||
| 2013-09-05T11:46 | 5797 | 507 | -4.2 | -21.8 | ||
| 2013-09-05T11:46 | 5858 | 503 | -4.7 | -25.4 | ||
| 2013-09-05T11:47 | 6073 | 490 | 66 | 6.0 | ||
| 2013-09-05T11:48 | 6293 | 476 | -7.8 | -25.4 | ||
| 2013-09-05T11:48 | 6451 | 467 | 65 | 7.0 | ||
| 2013-09-05T11:48 | 6554 | 460 | -10.1 | -27.3 | ||
| 2013-09-05T11:49 | 6671 | 453 | -11.0 | -25.2 | ||
| 2013-09-05T11:49 | 6689 | 452 | -11.1 | -26.9 | ||
| 2013-09-05T11:49 | 6723 | 450 | -11.3 | -23.4 | ||
| 2013-09-05T11:49 | 6758 | 448 | -11.5 | -25.3 | ||
| 2013-09-05T11:49 | 6805 | 446 | 70 | 8.0 | ||
| 2013-09-05T11:49 | 6915 | 439 | -12.0 | -29.4 | ||
| 2013-09-05T11:50 | 7181 | 424 | 61 | 5.0 | ||
| 2013-09-05T11:50 | 7224 | 422 | -14.3 | -34.1 | ||
| 2013-09-05T11:50 | 7242 | 421 | -14.4 | -28.2 | ||
| 2013-09-05T11:50 | 7291 | 418 | -14.8 | -26.6 | ||
| 2013-09-05T11:50 | 7321 | 416 | -15.1 | -23.7 | ||
| 2013-09-05T11:50 | 7356 | 415 | -15.3 | -26.2 | ||
| 2013-09-05T11:51 | 7409 | 412 | -15.7 | -25.2 | ||
| 2013-09-05T11:51 | 7462 | 409 | -15.8 | -31.4 | ||
| 2013-09-05T11:51 | 7492 | 407 | -15.8 | -37.3 | ||
| 2013-09-05T11:51 | 7539 | 405 | 65 | 7.0 | ||
| 2013-09-05T11:51 | 7557 | 404 | -16.0 | -37.4 | ||
| 2013-09-05T11:51 | 7674 | 397 | -16.5 | -32.0 | ||
| 2013-09-05T11:52 | 7786 | 391 | -17.0 | -39.0 | ||
| 2013-09-05T11:52 | 7909 | 385 | 56 | 7.0 | ||
| 2013-09-05T11:52 | 8012 | 380 | -18.4 | -36.9 | ||
| 2013-09-05T11:52 | 8053 | 378 | -18.5 | -42.7 | ||
| 2013-09-05T11:52 | 8084 | 376 | -18.6 | -35.6 | ||
| 2013-09-05T11:53 | 8146 | 373 | -19.1 | -31.1 | ||
| 2013-09-05T11:53 | 8276 | 367 | 58 | 7.0 | ||
| 2013-09-05T11:53 | 8340 | 363 | -20.7 | -45.4 | ||
| 2013-09-05T11:54 | 8500 | 356 | -21.9 | -44.5 | ||
| 2013-09-05T11:54 | 8575 | 352 | -22.5 | -40.4 | ||
| 2013-09-05T11:54 | 8637 | 349 | -23.0 | -40.3 | ||
| 2013-09-05T11:54 | 8680 | 347 | 69 | 9.0 | ||
| 2013-09-05T11:54 | 8722 | 345 | -23.4 | -44.2 | ||
| 2013-09-05T11:55 | 8963 | 334 | -25.0 | -46.2 | ||
| 2013-09-05T11:55 | 9094 | 328 | 80 | 7.0 | ||
| 2013-09-05T11:55 | 9107 | 327 | -26.4 | -41.8 | ||
| 2013-09-05T11:56 | 9345 | 317 | -28.5 | -43.6 | ||
| 2013-09-05T11:56 | 9515 | 309 | 74 | 7.0 | ||
| 2013-09-05T11:56 | 9658 | 303 | -31.1 | -43.7 | ||
| 2013-09-05T11:57 | 9852 | 295 | -32.4 | -54.7 | ||
| 2013-09-05T11:57 | 9910 | 292 | 82 | 10.0 | ||
| 2013-09-05T11:58 | 10139 | 283 | -34.5 | -49.7 | ||
| 2013-09-05T11:58 | 10302 | 276 | 92 | 10.0 | ||
| 2013-09-05T11:58 | 10434 | 271 | -36.7 | -50.0 | ||
| 2013-09-05T11:59 | 10510 | 268 | -37.4 | -46.5 | ||
| 2013-09-05T11:59 | 10699 | 261 | 87 | 12.0 | ||
| 2013-09-05T11:59 | 10713 | 260 | 87 | 11.0 | ||
| 2013-09-05T11:59 | 10806 | 257 | -39.9 | -48.1 | ||
| 2013-09-05T11:59 | 10820 | 256 | -40.0 | -48.9 | ||
| 2013-09-05T12:00 | 11147 | 244 | 108 | 10.0 | ||
| 2013-09-05T12:01 | 11589 | 229 | 114 | 9.0 | ||
| 2013-09-05T12:02 | 12016 | 214 | 111 | 8.0 | ||
| 2013-09-05T12:03 | 12446 | 201 | 84 | 6.0 | ||
| 2013-09-05T12:04 | 12885 | 187 | 94 | 9.0 | ||
| 2013-09-05T12:04 | 12930 | 186 | -56.2 | |||
| 2013-09-05T12:05 | 13295 | 176 | 89 | 9.0 | ||
| 2013-09-05T12:06 | 13714 | 164 | 90 | 10.0 | ||
| 2013-09-05T12:07 | 14052 | 155 | -63.5 | |||
| 2013-09-05T12:07 | 14148 | 153 | 93 | 10.0 | ||
| 2013-09-05T12:08 | 14601 | 142 | 80 | 7.0 | ||
| 2013-09-05T12:09 | 15043 | 132 | 81 | 9.0 | ||
| 2013-09-05T12:09 | 15094 | 131 | -69.5 | |||
| 2013-09-05T12:10 | 15487 | 122 | 91 | 13.0 | ||
| 2013-09-05T12:11 | 15963 | 113 | 101 | 13.0 | ||
| 2013-09-05T12:12 | 16374 | 105 | -76.5 | |||
| 2013-09-05T12:12 | 16412 | 104 | 99 | 14.0 | ||
| 2013-09-05T12:12 | 16515 | 103 | 102 | 15.0 | ||
| 2013-09-05T12:12 | 16537 | 102 | 104 | 15.0 | ||
| 2013-09-05T12:12 | 16580 | 101 | 106 | 15.0 | ||
| 2013-09-05T12:13 | 16664 | 100 | -75.6 | 110 | 14.0 | |
| 2013-09-05T12:13 | 16844 | 97 | 111 | 13.0 | ||
| 2013-09-05T12:14 | 17312 | 89 | 70 | 12.0 | ||
| 2013-09-05T12:14 | 17413 | 88 | -73.9 | |||
| 2013-09-05T12:15 | 17727 | 83 | 85 | 13.0 | ||
| 2013-09-05T12:16 | 18003 | 80 | -70.3 | |||
| 2013-09-05T12:16 | 18117 | 78 | 73 | 10.0 | ||
| 2013-09-05T12:17 | 18515 | 73 | 65 | 12.0 | ||
| 2013-09-05T12:18 | 18854 | 69 | -70.1 | |||
| 2013-09-05T12:18 | 18903 | 68 | 85 | 13.0 | ||
| 2013-09-05T12:19 | 19124 | 66 | -67.9 | |||
| 2013-09-05T12:19 | 19260 | 64 | 76 | 16.0 | ||
| 2013-09-05T12:19 | 19427 | 63 | -67.0 | |||
| 2013-09-05T12:20 | 19623 | 61 | 90 | 17.0 | ||
| 2013-09-05T12:20 | 19637 | 61 | 90 | 17.0 | ||
| 2013-09-05T12:20 | 19644 | 60 | 90 | 17.0 | ||
| 2013-09-05T12:21 | 20014 | 57 | -65.8 | |||
| 2013-09-05T12:21 | 20063 | 56 | 88 | 15.0 | ||
| 2013-09-05T12:22 | 20392 | 53 | -63.0 | |||
| 2013-09-05T12:22 | 20461 | 53 | 91 | 15.0 | ||
| 2013-09-05T12:23 | 20843 | 50 | 95 | 11.0 | ||
| 2013-09-05T12:23 | 21034 | 48 | -61.9 | |||
| 2013-09-05T12:24 | 21243 | 47 | 91 | 11.0 | ||
| 2013-09-05T12:25 | 21662 | 44 | 80 | 15.0 | ||
| 2013-09-05T12:26 | 21964 | 41 | -61.9 | |||
| 2013-09-05T12:26 | 22099 | 41 | 88 | 15.0 | ||
| 2013-09-05T12:27 | 22529 | 38 | 76 | 19.0 | ||
| 2013-09-05T12:27 | 22713 | 37 | -61.3 | |||
| 2013-09-05T12:28 | 22931 | 35 | 91 | 20.0 | ||
| 2013-09-05T12:29 | 23336 | 33 | 90 | 16.0 | ||
| 2013-09-05T12:29 | 23371 | 33 | -59.2 | |||
| 2013-09-05T12:30 | 23765 | 31 | 72 | 20.0 | ||
| 2013-09-05T12:31 | 24210 | 29 | 91 | 21.0 | ||
| 2013-09-05T12:31 | 24389 | 28 | 94 | 23.0 | ||
| 2013-09-05T12:32 | 24675 | 27 | 95 | 22.0 | ||
| 2013-09-05T12:33 | 25105 | 25 | 95 | 18.0 | ||
| 2013-09-05T12:34 | 25333 | 24 | -51.7 | |||
| 2013-09-05T12:34 | 25552 | 24 | 82 | 18.0 | ||
| 2013-09-05T12:35 | 26005 | 22 | 79 | 21.0 | ||
| 2013-09-05T12:36 | 26248 | 21 | -50.3 | |||
| 2013-09-05T12:36 | 26481 | 20 | 96 | 19.0 | ||
| 2013-09-05T12:37 | 26966 | 19 | -49.8 | 107 | 21.0 | |
| 2013-09-05T12:38 | 27395 | 18 | 94 | 22.0 | ||
| 2013-09-05T12:39 | 27804 | 17 | 84 | 26.0 | ||
| 2013-09-05T12:40 | 28067 | 16 | 85 | 29.0 | ||
| 2013-09-05T12:40 | 28246 | 16 | 87 | 28.0 | ||
| 2013-09-05T12:40 | 28302 | 15 | -46.0 | |||
| 2013-09-05T12:41 | 28748 | 14 | 91 | 27.0 | ||
| 2013-09-05T12:42 | 29217 | 13 | -44.1 | |||
| 2013-09-05T12:42 | 29278 | 13 | 82 | 24.0 | ||
| 2013-09-05T12:43 | 29632 | 13 | -44.3 | |||
| 2013-09-05T12:43 | 29716 | 13 | -44.3 | |||
| 2013-09-05T12:43 | 29792 | 12 | 76 | 30.0 | ||
| 2013-09-05T12:43 | 29883 | 12 | 77 | 31.0 | ||
| 2013-09-05T12:43 | 29917 | 12 | 77 | 31.0 | ||
| 2013-09-05T12:43 | 29974 | 12 | 78 | 31.0 | ||
| 2013-09-05T12:43 | 30024 | 12 | 78 | 31.0 | ||
| 2013-09-05T12:44 | 30082 | 12 | 79 | 31.0 | ||
| 2013-09-05T12:44 | 30288 | 12 | 81 | 30.0 | ||
| 2013-09-05T12:44 | 30388 | 11 | 82 | 31.0 | ||
| 2013-09-05T12:44 | 30429 | 11 | 83 | 31.0 | ||
| 2013-09-05T12:44 | 30487 | 11 | 83 | 31.0 | ||
| 2013-09-05T12:45 | 30553 | 11 | 84 | 31.0 | ||
| 2013-09-05T12:45 | 30611 | 11 | 84 | 31.0 | ||
| 2013-09-05T12:45 | 30702 | 11 | 86 | 31.0 | ||
| 2013-09-05T12:45 | 30786 | 11 | 87 | 30.0 | ||
| 2013-09-05T12:45 | 30819 | 11 | -43.2 | |||
| 2013-09-05T12:45 | 30957 | 10 | -43.2 | |||
| 2013-09-05T12:46 | 31106 | 10 | -43.5 | |||
| 2013-09-05T12:46 | 31297 | 10 | -43.2 | |||
| 2013-09-05T12:47 | 31728 | 9 | 91 | 27.0 | ||
| 2013-09-05T12:47 | 31733 | 9 | -41.7 | 91 | 27.0 | |
| 2013-09-05T23:30 | 9 | 1014 | 30.3 | 25.6 | 70 | 5.0 |
| 2013-09-05T23:30 | 30 | 1012 | 28.4 | 21.9 | 70 | 6.0 |
| 2013-09-05T23:31 | 321 | 979 | 25.7 | 22.6 | ||
| 2013-09-05T23:31 | 371 | 973 | 84 | 6.0 | ||
| 2013-09-05T23:31 | 469 | 963 | 24.4 | 22.5 | ||
| 2013-09-05T23:31 | 475 | 962 | 24.3 | 21.2 | ||
| 2013-09-05T23:31 | 487 | 961 | 24.3 | 21.8 | ||
| 2013-09-05T23:31 | 535 | 955 | 24.3 | 20.4 | ||
| 2013-09-05T23:32 | 732 | 934 | 88 | 5.0 | ||
| 2013-09-05T23:32 | 756 | 932 | 23.0 | 18.8 | ||
| 2013-09-05T23:33 | 1089 | 897 | 95 | 5.0 | ||
| 2013-09-05T23:34 | 1417 | 864 | 19.1 | 16.0 | ||
| 2013-09-05T23:34 | 1442 | 861 | 101 | 4.0 | ||
| 2013-09-05T23:34 | 1607 | 845 | 17.9 | 15.0 | ||
| 2013-09-05T23:35 | 1817 | 825 | 16.7 | 14.7 | ||
| 2013-09-05T23:35 | 1823 | 824 | 97 | 4.0 | ||
| 2013-09-05T23:36 | 2125 | 795 | 15.2 | 12.5 | ||
| 2013-09-05T23:36 | 2193 | 789 | 98 | 5.0 | ||
| 2013-09-05T23:37 | 2384 | 771 | 13.9 | 11.1 | ||
| 2013-09-05T23:37 | 2540 | 757 | 13.1 | 9.9 | ||
| 2013-09-05T23:37 | 2566 | 755 | 104 | 4.0 | ||
| 2013-09-05T23:37 | 2691 | 743 | 12.4 | 9.0 | ||
| 2013-09-05T23:38 | 2940 | 722 | 116 | 4.0 | ||
| 2013-09-05T23:38 | 3019 | 715 | 11.3 | 5.0 | ||
| 2013-09-05T23:38 | 3084 | 709 | 11.1 | 4.3 | ||
| 2013-09-05T23:39 | 3148 | 704 | 10.8 | 4.9 | ||
| 2013-09-05T23:39 | 3171 | 702 | 10.6 | 3.2 | ||
| 2013-09-05T23:39 | 3189 | 700 | 10.5 | 4.8 | ||
| 2013-09-05T23:39 | 3207 | 699 | 10.4 | 3.7 | ||
| 2013-09-05T23:39 | 3296 | 692 | 111 | 3.0 | ||
| 2013-09-05T23:39 | 3381 | 685 | 9.2 | 3.2 | ||
| 2013-09-05T23:40 | 3494 | 675 | 8.4 | 3.0 | ||
| 2013-09-05T23:40 | 3531 | 672 | 8.2 | 1.4 | ||
| 2013-09-05T23:40 | 3638 | 664 | 7.5 | 2.2 | ||
| 2013-09-05T23:40 | 3669 | 661 | 7.4 | 1.0 | 110 | 5.0 |
| 2013-09-05T23:40 | 3694 | 659 | 7.5 | -3.7 | ||
| 2013-09-05T23:40 | 3783 | 652 | 6.9 | 1.0 | ||
| 2013-09-05T23:41 | 3908 | 642 | 6.1 | 1.2 | ||
| 2013-09-05T23:41 | 4048 | 631 | 99 | 4.0 | ||
| 2013-09-05T23:41 | 4125 | 625 | 4.6 | -1.0 | ||
| 2013-09-05T23:41 | 4214 | 618 | 4.0 | -1.6 | ||
| 2013-09-05T23:42 | 4253 | 616 | 3.9 | -3.8 | ||
| 2013-09-05T23:42 | 4266 | 615 | 3.9 | -2.1 | ||
| 2013-09-05T23:42 | 4331 | 610 | 3.6 | -4.4 | ||
| 2013-09-05T23:42 | 4396 | 605 | 3.3 | -3.5 | ||
| 2013-09-05T23:42 | 4422 | 603 | 3.2 | -4.7 | ||
| 2013-09-05T23:42 | 4435 | 602 | 101 | 3.0 | ||
| 2013-09-05T23:42 | 4573 | 592 | 2.1 | -5.3 | ||
| 2013-09-05T23:42 | 4604 | 590 | 2.0 | -7.1 | ||
| 2013-09-05T23:43 | 4678 | 584 | 1.6 | -8.5 | ||
| 2013-09-05T23:43 | 4760 | 578 | 1.2 | -9.4 | ||
| 2013-09-05T23:43 | 4779 | 577 | 1.1 | -10.4 | ||
| 2013-09-05T23:43 | 4792 | 576 | 1.0 | -7.8 | ||
| 2013-09-05T23:43 | 4811 | 575 | 118 | 2.0 | ||
| 2013-09-05T23:43 | 4830 | 573 | 0.8 | -7.5 | ||
| 2013-09-05T23:43 | 4856 | 571 | 0.7 | -9.6 | ||
| 2013-09-05T23:43 | 4914 | 567 | 0.4 | -12.3 | ||
| 2013-09-05T23:43 | 4934 | 566 | 0.3 | -10.8 | ||
| 2013-09-05T23:43 | 4948 | 565 | 0.3 | -13.4 | ||
| 2013-09-05T23:43 | 4961 | 564 | 0.2 | -11.5 | ||
| 2013-09-05T23:43 | 4981 | 563 | 0.1 | -14.3 | ||
| 2013-09-05T23:44 | 5063 | 557 | -0.4 | -14.4 | ||
| 2013-09-05T23:44 | 5158 | 550 | -1.1 | -18.7 | ||
| 2013-09-05T23:44 | 5212 | 546 | 109 | 4.0 | ||
| 2013-09-05T23:44 | 5359 | 536 | -2.6 | -17.4 | ||
| 2013-09-05T23:45 | 5417 | 533 | -3.1 | -19.9 | ||
| 2013-09-05T23:45 | 5480 | 528 | -3.7 | -15.1 | ||
| 2013-09-05T23:45 | 5512 | 526 | -4.0 | -17.2 | ||
| 2013-09-05T23:45 | 5555 | 523 | -4.3 | -15.3 | ||
| 2013-09-05T23:45 | 5574 | 522 | -4.5 | -16.1 | ||
| 2013-09-05T23:45 | 5598 | 520 | 101 | 4.0 | ||
| 2013-09-05T23:45 | 5635 | 518 | -4.8 | -19.0 | ||
| 2013-09-05T23:45 | 5665 | 516 | -5.0 | -18.1 | ||
| 2013-09-05T23:45 | 5719 | 513 | -5.4 | -16.3 | ||
| 2013-09-05T23:45 | 5743 | 511 | -5.5 | -17.6 | ||
| 2013-09-05T23:45 | 5767 | 509 | -5.5 | -23.4 | ||
| 2013-09-05T23:46 | 5962 | 497 | 91 | 5.0 | ||
| 2013-09-05T23:46 | 5998 | 495 | -7.5 | -21.7 | ||
| 2013-09-05T23:46 | 6071 | 490 | -7.9 | -21.0 | ||
| 2013-09-05T23:47 | 6162 | 484 | -8.6 | -26.5 | ||
| 2013-09-05T23:47 | 6224 | 480 | -9.0 | -24.2 | ||
| 2013-09-05T23:47 | 6305 | 475 | -9.4 | -26.3 | ||
| 2013-09-05T23:47 | 6330 | 474 | 96 | 6.0 | ||
| 2013-09-05T23:47 | 6466 | 466 | -10.6 | -26.4 | ||
| 2013-09-05T23:48 | 6537 | 461 | -11.0 | -25.6 | ||
| 2013-09-05T23:48 | 6595 | 458 | -11.4 | -22.6 | ||
| 2013-09-05T23:48 | 6695 | 452 | -11.8 | -23.3 | ||
| 2013-09-05T23:48 | 6792 | 446 | -12.5 | -25.5 | ||
| 2013-09-05T23:48 | 6819 | 445 | -12.6 | -32.1 | ||
| 2013-09-05T23:49 | 6889 | 441 | -12.7 | -37.1 | ||
| 2013-09-05T23:49 | 6984 | 435 | -13.3 | -33.2 | ||
| 2013-09-05T23:49 | 7017 | 433 | -13.5 | -27.8 | ||
| 2013-09-05T23:49 | 7043 | 432 | 97 | 7.0 | ||
| 2013-09-05T23:49 | 7057 | 431 | -13.7 | -28.3 | ||
| 2013-09-05T23:49 | 7070 | 430 | -13.8 | -31.5 | ||
| 2013-09-05T23:49 | 7117 | 428 | -14.3 | -27.4 | ||
| 2013-09-05T23:49 | 7231 | 421 | -15.0 | -26.2 | ||
| 2013-09-05T23:50 | 7291 | 418 | -15.0 | -30.7 | ||
| 2013-09-05T23:50 | 7357 | 414 | -15.1 | -37.4 | ||
| 2013-09-05T23:50 | 7442 | 409 | 100 | 6.0 | ||
| 2013-09-05T23:50 | 7473 | 408 | -16.0 | -35.5 | ||
| 2013-09-05T23:50 | 7492 | 407 | -16.1 | -31.2 | ||
| 2013-09-05T23:51 | 7676 | 397 | -17.1 | -36.4 | ||
| 2013-09-05T23:51 | 7718 | 395 | -17.2 | -34.4 | ||
| 2013-09-05T23:51 | 7805 | 390 | 102 | 8.0 | ||
| 2013-09-05T23:51 | 7851 | 388 | -18.0 | -37.2 | ||
| 2013-09-05T23:51 | 7899 | 385 | -18.2 | -39.9 | ||
| 2013-09-05T23:52 | 8167 | 372 | 92 | 10.0 | ||
| 2013-09-05T23:52 | 8286 | 366 | 94 | 11.0 | ||
| 2013-09-05T23:52 | 8292 | 365 | 94 | 11.0 | ||
| 2013-09-05T23:53 | 8392 | 360 | -22.1 | -43.9 | ||
| 2013-09-05T23:53 | 8544 | 353 | 92 | 9.0 | ||
| 2013-09-05T23:54 | 8747 | 343 | -24.8 | -45.3 | ||
| 2013-09-05T23:54 | 8845 | 339 | -25.2 | -46.4 | ||
| 2013-09-05T23:54 | 8871 | 338 | -25.3 | -41.8 | ||
| 2013-09-05T23:54 | 8934 | 335 | 88 | 7.0 | ||
| 2013-09-05T23:54 | 8972 | 333 | -26.0 | -46.3 | ||
| 2013-09-05T23:55 | 9128 | 326 | -27.1 | -50.5 | ||
| 2013-09-05T23:55 | 9308 | 318 | 85 | 7.0 | ||
| 2013-09-05T23:56 | 9686 | 301 | 88 | 7.0 | ||
| 2013-09-05T23:57 | 10078 | 285 | 96 | 6.0 | ||
| 2013-09-05T23:58 | 10305 | 276 | -37.7 | -53.8 | ||
| 2013-09-05T23:58 | 10408 | 272 | -38.4 | -45.1 | ||
| 2013-09-05T23:58 | 10465 | 269 | 94 | 8.0 | ||
| 2013-09-05T23:58 | 10578 | 265 | -40.0 | -45.8 | ||
| 2013-09-05T23:59 | 10854 | 254 | 88 | 8.0 | ||
| 2013-09-06T00:00 | 11246 | 240 | 82 | 9.0 | ||
| 2013-09-06T00:01 | 11630 | 227 | 68 | 8.0 | ||
| 2013-09-06T00:02 | 12001 | 214 | 48 | 8.0 | ||
| 2013-09-06T00:03 | 12398 | 201 | 55 | 8.0 | ||
| 2013-09-06T00:03 | 12509 | 198 | -55.5 | |||
| 2013-09-06T00:04 | 12768 | 190 | 58 | 12.0 | ||
| 2013-09-06T00:04 | 12781 | 189 | 59 | 12.0 | ||
| 2013-09-06T00:04 | 12894 | 186 | -58.1 | |||
| 2013-09-06T00:05 | 13175 | 178 | 80 | 8.0 | ||
| 2013-09-06T00:06 | 13532 | 168 | 63 | 7.0 | ||
| 2013-09-06T00:07 | 13903 | 158 | 55 | 9.0 | ||
| 2013-09-06T00:08 | 14313 | 148 | 61 | 11.0 | ||
| 2013-09-06T00:09 | 14707 | 139 | 72 | 13.0 | ||
| 2013-09-06T00:10 | 14957 | 133 | -70.2 | |||
| 2013-09-06T00:10 | 15094 | 130 | 70 | 16.0 | ||
| 2013-09-06T00:11 | 15500 | 121 | 75 | 14.0 | ||
| 2013-09-06T00:12 | 15744 | 116 | -72.9 | |||
| 2013-09-06T00:12 | 15931 | 113 | 85 | 16.0 | ||
| 2013-09-06T00:13 | 16344 | 105 | -74.6 | |||
| 2013-09-06T00:13 | 16383 | 104 | 103 | 15.0 | ||
| 2013-09-06T00:14 | 16622 | 100 | -74.1 | 88 | 14.0 | |
| 2013-09-06T00:14 | 16809 | 97 | 83 | 17.0 | ||
| 2013-09-06T00:14 | 16866 | 96 | 86 | 17.0 | ||
| 2013-09-06T00:14 | 16872 | 96 | 86 | 17.0 | ||
| 2013-09-06T00:14 | 16877 | 96 | 86 | 17.0 | ||
| 2013-09-06T00:15 | 16991 | 94 | -73.9 | |||
| 2013-09-06T00:15 | 17153 | 91 | 87 | 14.0 | ||
| 2013-09-06T00:16 | 17381 | 88 | -72.4 | |||
| 2013-09-06T00:16 | 17387 | 88 | -72.3 | |||
| 2013-09-06T00:16 | 17485 | 86 | -72.4 | |||
| 2013-09-06T00:16 | 17497 | 86 | -72.4 | |||
| 2013-09-06T00:16 | 17510 | 86 | 82 | 15.0 | ||
| 2013-09-06T00:16 | 17606 | 85 | -72.0 | |||
| 2013-09-06T00:17 | 17901 | 80 | 96 | 15.0 | ||
| 2013-09-06T00:17 | 18018 | 79 | -71.7 | |||
| 2013-09-06T00:18 | 18100 | 78 | -72.1 | |||
| 2013-09-06T00:18 | 18195 | 77 | -71.9 | |||
| 2013-09-06T00:18 | 18262 | 76 | 89 | 13.0 | ||
| 2013-09-06T00:19 | 18571 | 72 | -69.8 | |||
| 2013-09-06T00:19 | 18633 | 71 | 77 | 11.0 | ||
| 2013-09-06T00:20 | 19000 | 67 | -68.9 | 77 | 14.0 | |
| 2013-09-06T00:21 | 19350 | 63 | -68.8 | |||
| 2013-09-06T00:21 | 19383 | 63 | 78 | 13.0 | ||
| 2013-09-06T00:22 | 19782 | 59 | 83 | 15.0 | ||
| 2013-09-06T00:22 | 19789 | 59 | -69.2 | |||
| 2013-09-06T00:23 | 19978 | 57 | 88 | 18.0 | ||
| 2013-09-06T00:23 | 19991 | 57 | 88 | 18.0 | ||
| 2013-09-06T00:23 | 20036 | 56 | -69.1 | |||
| 2013-09-06T00:23 | 20170 | 55 | 93 | 17.0 | ||
| 2013-09-06T00:24 | 20540 | 52 | 102 | 14.0 | ||
| 2013-09-06T00:25 | 20918 | 49 | 106 | 14.0 | ||
| 2013-09-06T00:25 | 21064 | 47 | -64.3 | |||
| 2013-09-06T00:26 | 21321 | 45 | 88 | 14.0 | ||
| 2013-09-06T00:27 | 21722 | 43 | -61.9 | |||
| 2013-09-06T00:27 | 21743 | 42 | 91 | 14.0 | ||
| 2013-09-06T00:27 | 21820 | 42 | -61.3 | |||
| 2013-09-06T00:28 | 22159 | 40 | 88 | 17.0 | ||
| 2013-09-06T00:28 | 22193 | 39 | -59.6 | |||
| 2013-09-06T00:28 | 22281 | 39 | -59.8 | |||
| 2013-09-06T00:29 | 22523 | 37 | -59.9 | |||
| 2013-09-06T00:29 | 22555 | 37 | 79 | 16.0 | ||
| 2013-09-06T00:29 | 22613 | 37 | -60.1 | |||
| 2013-09-06T00:29 | 22682 | 37 | -60.2 | |||
| 2013-09-06T00:30 | 22886 | 35 | -59.7 | |||
| 2013-09-06T00:30 | 22930 | 35 | 91 | 20.0 | ||
| 2013-09-06T00:30 | 22961 | 35 | -59.1 | |||
| 2013-09-06T00:30 | 22967 | 35 | -59.1 | |||
| 2013-09-06T00:31 | 23215 | 34 | -58.1 | |||
| 2013-09-06T00:31 | 23313 | 33 | 98 | 21.0 | ||
| 2013-09-06T00:32 | 23711 | 31 | 97 | 24.0 | ||
| 2013-09-06T00:32 | 23726 | 31 | 97 | 23.0 | ||
| 2013-09-06T00:32 | 23755 | 31 | 96 | 24.0 | ||
| 2013-09-06T00:32 | 23887 | 30 | -54.9 | |||
| 2013-09-06T00:33 | 24167 | 29 | 101 | 19.0 | ||
| 2013-09-06T00:34 | 24590 | 27 | 109 | 16.0 | ||
| 2013-09-06T00:35 | 24886 | 26 | -52.3 | |||
| 2013-09-06T00:35 | 24994 | 25 | 99 | 11.0 | ||
| 2013-09-06T00:36 | 25411 | 24 | 67 | 11.0 | ||
| 2013-09-06T00:37 | 25738 | 23 | -52.2 | |||
| 2013-09-06T00:37 | 25875 | 22 | 69 | 20.0 | ||
| 2013-09-06T00:38 | 26296 | 21 | -51.4 | |||
| 2013-09-06T00:38 | 26362 | 21 | 70 | 23.0 | ||
| 2013-09-06T00:39 | 26847 | 19 | 82 | 23.0 | ||
| 2013-09-06T00:40 | 27128 | 18 | -51.9 | |||
| 2013-09-06T00:40 | 27296 | 18 | 76 | 24.0 | ||
| 2013-09-06T00:41 | 27732 | 17 | 87 | 24.0 | ||
| 2013-09-06T00:42 | 28206 | 15 | 102 | 26.0 | ||
| 2013-09-06T00:42 | 28328 | 15 | -48.8 | |||
| 2013-09-06T00:43 | 28707 | 14 | 103 | 25.0 | ||
| 2013-09-06T00:43 | 28946 | 14 | -49.6 | |||
| 2013-09-06T00:44 | 29041 | 14 | -49.6 | |||
| 2013-09-06T00:44 | 29220 | 13 | 93 | 23.0 | ||
| 2013-09-06T00:44 | 29263 | 13 | -48.2 | |||
| 2013-09-06T00:45 | 29552 | 13 | -48.4 | |||
| 2013-09-06T00:45 | 29621 | 13 | -48.4 | |||
| 2013-09-06T00:45 | 29705 | 12 | 96 | 27.0 | ||
| 2013-09-06T00:45 | 29781 | 12 | 101 | 28.0 | ||
| 2013-09-06T00:45 | 29818 | 12 | -48.4 | 92 | 24.0 | |
| 2013-09-06T11:30 | 9 | 1014 | 28.6 | 25.4 | 130 | 3.0 |
| 2013-09-06T11:30 | 80 | 1006 | 28.1 | 24.3 | ||
| 2013-09-06T11:31 | 331 | 978 | 118 | 3.0 | ||
| 2013-09-06T11:32 | 571 | 951 | 24.1 | 22.4 | ||
| 2013-09-06T11:32 | 620 | 946 | 24.1 | 20.0 | ||
| 2013-09-06T11:32 | 664 | 942 | 126 | 5.0 | ||
| 2013-09-06T11:32 | 793 | 928 | 23.2 | 18.7 | ||
| 2013-09-06T11:33 | 876 | 919 | 22.6 | 19.0 | ||
| 2013-09-06T11:33 | 997 | 906 | 125 | 4.0 | ||
| 2013-09-06T11:34 | 1216 | 884 | 20.5 | 17.9 | ||
| 2013-09-06T11:34 | 1330 | 872 | 118 | 5.0 | ||
| 2013-09-06T11:35 | 1676 | 838 | 119 | 5.0 | ||
| 2013-09-06T11:35 | 1706 | 835 | 17.7 | 15.5 | ||
| 2013-09-06T11:36 | 2015 | 805 | 120 | 5.0 | ||
| 2013-09-06T11:36 | 2063 | 801 | 16.2 | 13.1 | ||
| 2013-09-06T11:37 | 2199 | 788 | 117 | 5.0 | ||
| 2013-09-06T11:37 | 2204 | 787 | 117 | 5.0 | ||
| 2013-09-06T11:37 | 2317 | 777 | 15.0 | 10.4 | ||
| 2013-09-06T11:37 | 2338 | 775 | 117 | 5.0 | ||
| 2013-09-06T11:37 | 2365 | 773 | 14.8 | 10.0 | ||
| 2013-09-06T11:38 | 2529 | 758 | 14.0 | 10.0 | ||
| 2013-09-06T11:38 | 2540 | 757 | 13.9 | 8.5 | ||
| 2013-09-06T11:38 | 2674 | 745 | 105 | 5.0 | ||
| 2013-09-06T11:38 | 2787 | 735 | 12.4 | 7.5 | ||
| 2013-09-06T11:39 | 2980 | 718 | 11.1 | 7.0 | ||
| 2013-09-06T11:39 | 3033 | 714 | 99 | 3.0 | ||
| 2013-09-06T11:39 | 3084 | 709 | 10.6 | 5.6 | ||
| 2013-09-06T11:39 | 3123 | 706 | 10.5 | 4.2 | ||
| 2013-09-06T11:40 | 3241 | 696 | 10.0 | 3.9 | ||
| 2013-09-06T11:40 | 3324 | 689 | 9.7 | 2.5 |
Only the first 2000 rows were shown. To view the complete dataset, download it as tab-delimited text. You can still view the full matrix in your browser, but be aware that this may crash the browser due to the huge size.
